<?xml version="1.0" encoding="UTF-8" standalone="no" ?>
<gpx xmlns="http://www.topografix.com/GPX/1/1" xmlns:xsi="http://www.w3.org/2001/XMLSchema-instance" xsi:schemaLocation="http://www.topografix.com/GPX/1/1 http://www.topografix.com/GPX/1/1/gpx.xsd" version="1.1" creator="VisuGPX - https://www.visugpx.com">
  <metadata>
    <name>Du Soulor à Ferrières</name>
    <desc><![CDATA[Départ du Soulor avec un passage aux cols de Maubec et le lac de Soum, de Bazès, de la Serre, de Couraduque et des Spandelles avant une très belle descente sur Ferrières]]></desc>
  </metadata>
  <wpt lat="42.961" lon="-0.26149">
    <ele>1482.91</ele>
    <name><![CDATA[0000148]]></name>
    <type><![CDATA[Point de départ]]></type>
  </wpt>
  <wpt lat="43.01019" lon="-0.26417">
    <ele>555.39</ele>
    <name><![CDATA[0000149]]></name>
    <desc><![CDATA[<p><br /><h3>Nom: Segment: 1</h3><br />Heure de départ: 10/11/2018 10:32<br/>Heure d'arrivée: 10/11/2018 13:38<br/>Distance: 24,5km (03:05)<br/>Temps déplacement: 01:48<br/>Vitesse moyenne: 7,92 km/h<br/>Vitesse moyenne mouv.: 13,21 km/h<br/>Vitesse Max.: 42,37 km/h<br/>Altitude minimale: 547 m<br/>Altitude maximale: 1599 m<br/>Vitesse de montée: 262,7 m/h<br/>Vitesse de descente: -1094,2 m/h<br/>Gain d'altitude: 461 m<br/>Perte d'altitude: -1391 m<br/>Temps de montée: 01:45<br/>Temps de descente: 01:16<br/></p>]]></desc>
    <type><![CDATA[Point d'arrivée]]></type>
  </wpt>
  <trk>
    <name><![CDATA[2018-10-11 10:32]]></name>
    <desc><![CDATA[<p>Heure de départ: 10/11/2018 10:32<br/>Heure d'arrivée: 10/11/2018 13:38<br/>Distance: 24,5 km (03:05)<br/>Temps déplacement: 01:48<br/>Vitesse moyenne: 7,92 km/h<br/>Vitesse moyenne mouv.: 13,53 km/h<br/>Vitesse Max.: 42,37 km/h<br/>Altitude minimale: 547 m<br/>Altitude maximale: 1599 m<br/>Vitesse de montée: 262,7 m/h<br/>Vitesse de descente: -1094,2 m/h<br/>Gain d'altitude: 461 m<br/>Perte d'altitude: -1391 m<br/>Temps de montée: 01:45<br/>Temps de descente: 01:16<br/></p><hr align="center" width="480" style="height: 2px; width: 517px"/>]]></desc>
    <trkseg>
      <trkpt lat="42.961" lon="-0.26149">
        <ele>1482.91</ele>
        <time>2018-10-11T08:32:14Z</time>
      </trkpt>
      <trkpt lat="42.96094" lon="-0.26124">
        <ele>1480.4</ele>
        <time>2018-10-11T08:40:44Z</time>
      </trkpt>
      <trkpt lat="42.96098" lon="-0.26099">
        <ele>1482.39</ele>
        <time>2018-10-11T08:40:58Z</time>
      </trkpt>
      <trkpt lat="42.96113" lon="-0.26083">
        <ele>1484.09</ele>
        <time>2018-10-11T08:41:09Z</time>
      </trkpt>
      <trkpt lat="42.96116" lon="-0.26058">
        <ele>1486.3</ele>
        <time>2018-10-11T08:41:19Z</time>
      </trkpt>
      <trkpt lat="42.96122" lon="-0.26033">
        <ele>1485.42</ele>
        <time>2018-10-11T08:41:29Z</time>
      </trkpt>
      <trkpt lat="42.96125" lon="-0.26007">
        <ele>1483.78</ele>
        <time>2018-10-11T08:41:36Z</time>
      </trkpt>
      <trkpt lat="42.9613" lon="-0.25979">
        <ele>1480.52</ele>
        <time>2018-10-11T08:41:40Z</time>
      </trkpt>
      <trkpt lat="42.96142" lon="-0.25957">
        <ele>1478.79</ele>
        <time>2018-10-11T08:41:44Z</time>
      </trkpt>
      <trkpt lat="42.96157" lon="-0.25939">
        <ele>1478.4</ele>
        <time>2018-10-11T08:41:47Z</time>
      </trkpt>
      <trkpt lat="42.96173" lon="-0.25914">
        <ele>1475.81</ele>
        <time>2018-10-11T08:41:50Z</time>
      </trkpt>
      <trkpt lat="42.96177" lon="-0.25879">
        <ele>1472.82</ele>
        <time>2018-10-11T08:41:53Z</time>
      </trkpt>
      <trkpt lat="42.96179" lon="-0.25843">
        <ele>1470.8</ele>
        <time>2018-10-11T08:41:56Z</time>
      </trkpt>
      <trkpt lat="42.96171" lon="-0.25812">
        <ele>1468.52</ele>
        <time>2018-10-11T08:41:59Z</time>
      </trkpt>
      <trkpt lat="42.96165" lon="-0.25782">
        <ele>1468.4</ele>
        <time>2018-10-11T08:42:03Z</time>
      </trkpt>
      <trkpt lat="42.9616" lon="-0.25758">
        <ele>1469.39</ele>
        <time>2018-10-11T08:42:07Z</time>
      </trkpt>
      <trkpt lat="42.96164" lon="-0.25732">
        <ele>1469.39</ele>
        <time>2018-10-11T08:42:13Z</time>
      </trkpt>
      <trkpt lat="42.96171" lon="-0.25707">
        <ele>1468.42</ele>
        <time>2018-10-11T08:42:19Z</time>
      </trkpt>
      <trkpt lat="42.96182" lon="-0.25687">
        <ele>1467.48</ele>
        <time>2018-10-11T08:42:25Z</time>
      </trkpt>
      <trkpt lat="42.96196" lon="-0.25671">
        <ele>1466.4</ele>
        <time>2018-10-11T08:42:33Z</time>
      </trkpt>
      <trkpt lat="42.96204" lon="-0.25647">
        <ele>1463.7</ele>
        <time>2018-10-11T08:42:43Z</time>
      </trkpt>
      <trkpt lat="42.96217" lon="-0.25629">
        <ele>1463.39</ele>
        <time>2018-10-11T08:42:50Z</time>
      </trkpt>
      <trkpt lat="42.96227" lon="-0.25605">
        <ele>1463.39</ele>
        <time>2018-10-11T08:43:14Z</time>
      </trkpt>
      <trkpt lat="42.96233" lon="-0.25582">
        <ele>1464.67</ele>
        <time>2018-10-11T08:43:20Z</time>
      </trkpt>
      <trkpt lat="42.96242" lon="-0.25559">
        <ele>1464.37</ele>
        <time>2018-10-11T08:43:27Z</time>
      </trkpt>
      <trkpt lat="42.96252" lon="-0.25535">
        <ele>1466.3</ele>
        <time>2018-10-11T08:43:33Z</time>
      </trkpt>
      <trkpt lat="42.96261" lon="-0.25512">
        <ele>1465.46</ele>
        <time>2018-10-11T08:43:39Z</time>
      </trkpt>
      <trkpt lat="42.96261" lon="-0.25485">
        <ele>1465.39</ele>
        <time>2018-10-11T08:43:46Z</time>
      </trkpt>
      <trkpt lat="42.96257" lon="-0.25458">
        <ele>1465.39</ele>
        <time>2018-10-11T08:43:54Z</time>
      </trkpt>
      <trkpt lat="42.9626" lon="-0.25433">
        <ele>1467.39</ele>
        <time>2018-10-11T08:44:02Z</time>
      </trkpt>
      <trkpt lat="42.96268" lon="-0.25409">
        <ele>1468.48</ele>
        <time>2018-10-11T08:44:10Z</time>
      </trkpt>
      <trkpt lat="42.96279" lon="-0.25387">
        <ele>1468.39</ele>
        <time>2018-10-11T08:44:17Z</time>
      </trkpt>
      <trkpt lat="42.9629" lon="-0.25367">
        <ele>1469.09</ele>
        <time>2018-10-11T08:44:24Z</time>
      </trkpt>
      <trkpt lat="42.96298" lon="-0.2539">
        <ele>1470.09</ele>
        <time>2018-10-11T08:44:38Z</time>
      </trkpt>
      <trkpt lat="42.96292" lon="-0.25414">
        <ele>1473</ele>
        <time>2018-10-11T08:44:45Z</time>
      </trkpt>
      <trkpt lat="42.96287" lon="-0.25438">
        <ele>1477.36</ele>
        <time>2018-10-11T08:44:53Z</time>
      </trkpt>
      <trkpt lat="42.96301" lon="-0.25422">
        <ele>1481.3</ele>
        <time>2018-10-11T08:45:12Z</time>
      </trkpt>
      <trkpt lat="42.96309" lon="-0.25396">
        <ele>1480.39</ele>
        <time>2018-10-11T08:45:21Z</time>
      </trkpt>
      <trkpt lat="42.96317" lon="-0.25372">
        <ele>1482.37</ele>
        <time>2018-10-11T08:45:32Z</time>
      </trkpt>
      <trkpt lat="42.96324" lon="-0.25347">
        <ele>1485.09</ele>
        <time>2018-10-11T08:45:40Z</time>
      </trkpt>
      <trkpt lat="42.96335" lon="-0.25327">
        <ele>1484.48</ele>
        <time>2018-10-11T08:45:44Z</time>
      </trkpt>
      <trkpt lat="42.96354" lon="-0.25307">
        <ele>1484.39</ele>
        <time>2018-10-11T08:45:48Z</time>
      </trkpt>
      <trkpt lat="42.96366" lon="-0.25279">
        <ele>1487.97</ele>
        <time>2018-10-11T08:45:52Z</time>
      </trkpt>
      <trkpt lat="42.96375" lon="-0.25248">
        <ele>1487.41</ele>
        <time>2018-10-11T08:45:55Z</time>
      </trkpt>
      <trkpt lat="42.96387" lon="-0.25227">
        <ele>1486.42</ele>
        <time>2018-10-11T08:45:58Z</time>
      </trkpt>
      <trkpt lat="42.96408" lon="-0.25228">
        <ele>1486.18</ele>
        <time>2018-10-11T08:46:02Z</time>
      </trkpt>
      <trkpt lat="42.96414" lon="-0.25253">
        <ele>1488.3</ele>
        <time>2018-10-11T08:46:07Z</time>
      </trkpt>
      <trkpt lat="42.96396" lon="-0.25259">
        <ele>1491.06</ele>
        <time>2018-10-11T08:46:13Z</time>
      </trkpt>
      <trkpt lat="42.964" lon="-0.25284">
        <ele>1496.37</ele>
        <time>2018-10-11T08:47:00Z</time>
      </trkpt>
      <trkpt lat="42.96417" lon="-0.25295">
        <ele>1497.67</ele>
        <time>2018-10-11T08:47:10Z</time>
      </trkpt>
      <trkpt lat="42.96435" lon="-0.25303">
        <ele>1499.33</ele>
        <time>2018-10-11T08:47:22Z</time>
      </trkpt>
      <trkpt lat="42.96454" lon="-0.25307">
        <ele>1502.32</ele>
        <time>2018-10-11T08:47:32Z</time>
      </trkpt>
      <trkpt lat="42.96472" lon="-0.25303">
        <ele>1505.09</ele>
        <time>2018-10-11T08:47:41Z</time>
      </trkpt>
      <trkpt lat="42.9649" lon="-0.25296">
        <ele>1506.39</ele>
        <time>2018-10-11T08:47:50Z</time>
      </trkpt>
      <trkpt lat="42.96508" lon="-0.25292">
        <ele>1507.6</ele>
        <time>2018-10-11T08:47:59Z</time>
      </trkpt>
      <trkpt lat="42.96527" lon="-0.25286">
        <ele>1507.39</ele>
        <time>2018-10-11T08:48:07Z</time>
      </trkpt>
      <trkpt lat="42.96543" lon="-0.25274">
        <ele>1504.49</ele>
        <time>2018-10-11T08:48:14Z</time>
      </trkpt>
      <trkpt lat="42.9656" lon="-0.25263">
        <ele>1501.43</ele>
        <time>2018-10-11T08:48:19Z</time>
      </trkpt>
      <trkpt lat="42.96577" lon="-0.25253">
        <ele>1502.39</ele>
        <time>2018-10-11T08:48:26Z</time>
      </trkpt>
      <trkpt lat="42.96588" lon="-0.25231">
        <ele>1502.6</ele>
        <time>2018-10-11T08:48:34Z</time>
      </trkpt>
      <trkpt lat="42.96592" lon="-0.25206">
        <ele>1503.39</ele>
        <time>2018-10-11T08:48:42Z</time>
      </trkpt>
      <trkpt lat="42.96595" lon="-0.2518">
        <ele>1504.39</ele>
        <time>2018-10-11T08:48:50Z</time>
      </trkpt>
      <trkpt lat="42.96601" lon="-0.25154">
        <ele>1504.39</ele>
        <time>2018-10-11T08:48:57Z</time>
      </trkpt>
      <trkpt lat="42.96603" lon="-0.2513">
        <ele>1503.69</ele>
        <time>2018-10-11T08:49:04Z</time>
      </trkpt>
      <trkpt lat="42.96599" lon="-0.25101">
        <ele>1503.4</ele>
        <time>2018-10-11T08:49:11Z</time>
      </trkpt>
      <trkpt lat="42.96599" lon="-0.25074">
        <ele>1503.39</ele>
        <time>2018-10-11T08:49:16Z</time>
      </trkpt>
      <trkpt lat="42.96605" lon="-0.25049">
        <ele>1503.18</ele>
        <time>2018-10-11T08:49:19Z</time>
      </trkpt>
      <trkpt lat="42.96611" lon="-0.25023">
        <ele>1504.37</ele>
        <time>2018-10-11T08:49:23Z</time>
      </trkpt>
      <trkpt lat="42.96626" lon="-0.25002">
        <ele>1502.7</ele>
        <time>2018-10-11T08:49:28Z</time>
      </trkpt>
      <trkpt lat="42.96643" lon="-0.24987">
        <ele>1500.53</ele>
        <time>2018-10-11T08:49:33Z</time>
      </trkpt>
      <trkpt lat="42.96659" lon="-0.24974">
        <ele>1501.43</ele>
        <time>2018-10-11T08:49:39Z</time>
      </trkpt>
      <trkpt lat="42.96677" lon="-0.24962">
        <ele>1501.52</ele>
        <time>2018-10-11T08:49:46Z</time>
      </trkpt>
      <trkpt lat="42.96694" lon="-0.24955">
        <ele>1501.52</ele>
        <time>2018-10-11T08:49:52Z</time>
      </trkpt>
      <trkpt lat="42.96712" lon="-0.24946">
        <ele>1503.43</ele>
        <time>2018-10-11T08:49:58Z</time>
      </trkpt>
      <trkpt lat="42.9673" lon="-0.24931">
        <ele>1502.53</ele>
        <time>2018-10-11T08:50:04Z</time>
      </trkpt>
      <trkpt lat="42.96739" lon="-0.24906">
        <ele>1502.25</ele>
        <time>2018-10-11T08:50:09Z</time>
      </trkpt>
      <trkpt lat="42.96744" lon="-0.24883">
        <ele>1503.22</ele>
        <time>2018-10-11T08:50:14Z</time>
      </trkpt>
      <trkpt lat="42.96752" lon="-0.24855">
        <ele>1502.61</ele>
        <time>2018-10-11T08:50:19Z</time>
      </trkpt>
      <trkpt lat="42.96761" lon="-0.24833">
        <ele>1501.61</ele>
        <time>2018-10-11T08:50:24Z</time>
      </trkpt>
      <trkpt lat="42.96773" lon="-0.24814">
        <ele>1501.52</ele>
        <time>2018-10-11T08:50:29Z</time>
      </trkpt>
      <trkpt lat="42.96793" lon="-0.24812">
        <ele>1501.52</ele>
        <time>2018-10-11T08:50:35Z</time>
      </trkpt>
      <trkpt lat="42.96811" lon="-0.24825">
        <ele>1502.52</ele>
        <time>2018-10-11T08:50:41Z</time>
      </trkpt>
      <trkpt lat="42.96828" lon="-0.24836">
        <ele>1503.51</ele>
        <time>2018-10-11T08:50:47Z</time>
      </trkpt>
      <trkpt lat="42.96847" lon="-0.24844">
        <ele>1504.52</ele>
        <time>2018-10-11T08:50:54Z</time>
      </trkpt>
      <trkpt lat="42.96865" lon="-0.24851">
        <ele>1506.52</ele>
        <time>2018-10-11T08:51:02Z</time>
      </trkpt>
      <trkpt lat="42.9688" lon="-0.24866">
        <ele>1506.52</ele>
        <time>2018-10-11T08:51:10Z</time>
      </trkpt>
      <trkpt lat="42.96895" lon="-0.24882">
        <ele>1506.6</ele>
        <time>2018-10-11T08:51:18Z</time>
      </trkpt>
      <trkpt lat="42.96914" lon="-0.24883">
        <ele>1508.51</ele>
        <time>2018-10-11T08:51:25Z</time>
      </trkpt>
      <trkpt lat="42.9693" lon="-0.2487">
        <ele>1510.43</ele>
        <time>2018-10-11T08:51:32Z</time>
      </trkpt>
      <trkpt lat="42.96947" lon="-0.24857">
        <ele>1512.51</ele>
        <time>2018-10-11T08:51:40Z</time>
      </trkpt>
      <trkpt lat="42.96965" lon="-0.24843">
        <ele>1512.52</ele>
        <time>2018-10-11T08:51:47Z</time>
      </trkpt>
      <trkpt lat="42.96976" lon="-0.24821">
        <ele>1512.8</ele>
        <time>2018-10-11T08:51:53Z</time>
      </trkpt>
      <trkpt lat="42.96984" lon="-0.24796">
        <ele>1513.52</ele>
        <time>2018-10-11T08:51:59Z</time>
      </trkpt>
      <trkpt lat="42.9699" lon="-0.24771">
        <ele>1514.43</ele>
        <time>2018-10-11T08:52:05Z</time>
      </trkpt>
      <trkpt lat="42.97001" lon="-0.24749">
        <ele>1515.49</ele>
        <time>2018-10-11T08:52:12Z</time>
      </trkpt>
      <trkpt lat="42.97017" lon="-0.24737">
        <ele>1516.43</ele>
        <time>2018-10-11T08:52:19Z</time>
      </trkpt>
      <trkpt lat="42.97035" lon="-0.24725">
        <ele>1517.51</ele>
        <time>2018-10-11T08:52:27Z</time>
      </trkpt>
      <trkpt lat="42.97052" lon="-0.24714">
        <ele>1518.52</ele>
        <time>2018-10-11T08:52:35Z</time>
      </trkpt>
      <trkpt lat="42.97067" lon="-0.24698">
        <ele>1519.24</ele>
        <time>2018-10-11T08:52:42Z</time>
      </trkpt>
      <trkpt lat="42.97068" lon="-0.24671">
        <ele>1519.52</ele>
        <time>2018-10-11T08:52:48Z</time>
      </trkpt>
      <trkpt lat="42.97065" lon="-0.24642">
        <ele>1519.52</ele>
        <time>2018-10-11T08:52:54Z</time>
      </trkpt>
      <trkpt lat="42.9706" lon="-0.24614">
        <ele>1518.52</ele>
        <time>2018-10-11T08:53:00Z</time>
      </trkpt>
      <trkpt lat="42.97055" lon="-0.24588">
        <ele>1518.52</ele>
        <time>2018-10-11T08:53:06Z</time>
      </trkpt>
      <trkpt lat="42.97058" lon="-0.24561">
        <ele>1518.52</ele>
        <time>2018-10-11T08:53:13Z</time>
      </trkpt>
      <trkpt lat="42.97069" lon="-0.2454">
        <ele>1517.55</ele>
        <time>2018-10-11T08:53:19Z</time>
      </trkpt>
      <trkpt lat="42.97079" lon="-0.24515">
        <ele>1517.52</ele>
        <time>2018-10-11T08:53:24Z</time>
      </trkpt>
      <trkpt lat="42.97084" lon="-0.24491">
        <ele>1517.52</ele>
        <time>2018-10-11T08:53:28Z</time>
      </trkpt>
      <trkpt lat="42.97089" lon="-0.24464">
        <ele>1519.43</ele>
        <time>2018-10-11T08:53:34Z</time>
      </trkpt>
      <trkpt lat="42.97095" lon="-0.24437">
        <ele>1521.43</ele>
        <time>2018-10-11T08:53:41Z</time>
      </trkpt>
      <trkpt lat="42.97098" lon="-0.24412">
        <ele>1522.52</ele>
        <time>2018-10-11T08:53:48Z</time>
      </trkpt>
      <trkpt lat="42.97104" lon="-0.24386">
        <ele>1522.53</ele>
        <time>2018-10-11T08:53:55Z</time>
      </trkpt>
      <trkpt lat="42.97112" lon="-0.2436">
        <ele>1523.52</ele>
        <time>2018-10-11T08:54:02Z</time>
      </trkpt>
      <trkpt lat="42.97122" lon="-0.24336">
        <ele>1525.22</ele>
        <time>2018-10-11T08:54:09Z</time>
      </trkpt>
      <trkpt lat="42.97142" lon="-0.24333">
        <ele>1524.52</ele>
        <time>2018-10-11T08:54:16Z</time>
      </trkpt>
      <trkpt lat="42.97152" lon="-0.24353">
        <ele>1526.43</ele>
        <time>2018-10-11T08:54:22Z</time>
      </trkpt>
      <trkpt lat="42.97162" lon="-0.24376">
        <ele>1527.51</ele>
        <time>2018-10-11T08:54:30Z</time>
      </trkpt>
      <trkpt lat="42.97179" lon="-0.24387">
        <ele>1530.19</ele>
        <time>2018-10-11T08:54:39Z</time>
      </trkpt>
      <trkpt lat="42.97194" lon="-0.24368">
        <ele>1532.52</ele>
        <time>2018-10-11T08:54:48Z</time>
      </trkpt>
      <trkpt lat="42.972" lon="-0.24344">
        <ele>1533.51</ele>
        <time>2018-10-11T08:54:56Z</time>
      </trkpt>
      <trkpt lat="42.97213" lon="-0.24325">
        <ele>1534.52</ele>
        <time>2018-10-11T08:55:05Z</time>
      </trkpt>
      <trkpt lat="42.97232" lon="-0.24323">
        <ele>1536.52</ele>
        <time>2018-10-11T08:55:16Z</time>
      </trkpt>
      <trkpt lat="42.97252" lon="-0.24323">
        <ele>1537.54</ele>
        <time>2018-10-11T08:55:27Z</time>
      </trkpt>
      <trkpt lat="42.97269" lon="-0.2433">
        <ele>1536.82</ele>
        <time>2018-10-11T08:55:34Z</time>
      </trkpt>
      <trkpt lat="42.97282" lon="-0.2435">
        <ele>1533.03</ele>
        <time>2018-10-11T08:55:38Z</time>
      </trkpt>
      <trkpt lat="42.97295" lon="-0.24371">
        <ele>1530.93</ele>
        <time>2018-10-11T08:55:41Z</time>
      </trkpt>
      <trkpt lat="42.97316" lon="-0.24389">
        <ele>1528.86</ele>
        <time>2018-10-11T08:55:44Z</time>
      </trkpt>
      <trkpt lat="42.9734" lon="-0.24399">
        <ele>1527.83</ele>
        <time>2018-10-11T08:55:47Z</time>
      </trkpt>
      <trkpt lat="42.97361" lon="-0.24407">
        <ele>1527.53</ele>
        <time>2018-10-11T08:55:50Z</time>
      </trkpt>
      <trkpt lat="42.97377" lon="-0.24422">
        <ele>1526.55</ele>
        <time>2018-10-11T08:55:53Z</time>
      </trkpt>
      <trkpt lat="42.97371" lon="-0.2445">
        <ele>1528.42</ele>
        <time>2018-10-11T08:55:57Z</time>
      </trkpt>
      <trkpt lat="42.9738" lon="-0.24474">
        <ele>1530.49</ele>
        <time>2018-10-11T08:56:07Z</time>
      </trkpt>
      <trkpt lat="42.97398" lon="-0.24482">
        <ele>1532.43</ele>
        <time>2018-10-11T08:56:17Z</time>
      </trkpt>
      <trkpt lat="42.97414" lon="-0.24494">
        <ele>1534.52</ele>
        <time>2018-10-11T08:56:26Z</time>
      </trkpt>
      <trkpt lat="42.97428" lon="-0.24513">
        <ele>1535.43</ele>
        <time>2018-10-11T08:56:35Z</time>
      </trkpt>
      <trkpt lat="42.97416" lon="-0.24493">
        <ele>1536.55</ele>
        <time>2018-10-11T08:59:37Z</time>
      </trkpt>
      <trkpt lat="42.974" lon="-0.24479">
        <ele>1534.56</ele>
        <time>2018-10-11T08:59:43Z</time>
      </trkpt>
      <trkpt lat="42.97414" lon="-0.2446">
        <ele>1529.43</ele>
        <time>2018-10-11T09:00:00Z</time>
      </trkpt>
      <trkpt lat="42.97433" lon="-0.24448">
        <ele>1528.52</ele>
        <time>2018-10-11T09:00:07Z</time>
      </trkpt>
      <trkpt lat="42.97452" lon="-0.24442">
        <ele>1529.22</ele>
        <time>2018-10-11T09:00:14Z</time>
      </trkpt>
      <trkpt lat="42.97473" lon="-0.24439">
        <ele>1528.61</ele>
        <time>2018-10-11T09:00:20Z</time>
      </trkpt>
      <trkpt lat="42.97491" lon="-0.24435">
        <ele>1528.52</ele>
        <time>2018-10-11T09:00:25Z</time>
      </trkpt>
      <trkpt lat="42.9751" lon="-0.24423">
        <ele>1528.54</ele>
        <time>2018-10-11T09:00:30Z</time>
      </trkpt>
      <trkpt lat="42.97524" lon="-0.24406">
        <ele>1527.82</ele>
        <time>2018-10-11T09:00:35Z</time>
      </trkpt>
      <trkpt lat="42.9754" lon="-0.24392">
        <ele>1527.53</ele>
        <time>2018-10-11T09:00:40Z</time>
      </trkpt>
      <trkpt lat="42.97558" lon="-0.24384">
        <ele>1528.43</ele>
        <time>2018-10-11T09:00:45Z</time>
      </trkpt>
      <trkpt lat="42.97575" lon="-0.24369">
        <ele>1527.55</ele>
        <time>2018-10-11T09:00:50Z</time>
      </trkpt>
      <trkpt lat="42.9759" lon="-0.24355">
        <ele>1528.5</ele>
        <time>2018-10-11T09:00:55Z</time>
      </trkpt>
      <trkpt lat="42.97607" lon="-0.24343">
        <ele>1528.52</ele>
        <time>2018-10-11T09:01:00Z</time>
      </trkpt>
      <trkpt lat="42.97626" lon="-0.24329">
        <ele>1528.52</ele>
        <time>2018-10-11T09:01:05Z</time>
      </trkpt>
      <trkpt lat="42.97644" lon="-0.24314">
        <ele>1529.49</ele>
        <time>2018-10-11T09:01:10Z</time>
      </trkpt>
      <trkpt lat="42.97659" lon="-0.24301">
        <ele>1529.52</ele>
        <time>2018-10-11T09:01:15Z</time>
      </trkpt>
      <trkpt lat="42.97676" lon="-0.24285">
        <ele>1528.55</ele>
        <time>2018-10-11T09:01:21Z</time>
      </trkpt>
      <trkpt lat="42.97689" lon="-0.24267">
        <ele>1528.52</ele>
        <time>2018-10-11T09:01:27Z</time>
      </trkpt>
      <trkpt lat="42.97708" lon="-0.24266">
        <ele>1527.52</ele>
        <time>2018-10-11T09:01:33Z</time>
      </trkpt>
      <trkpt lat="42.97726" lon="-0.24261">
        <ele>1528.51</ele>
        <time>2018-10-11T09:01:38Z</time>
      </trkpt>
      <trkpt lat="42.97746" lon="-0.24258">
        <ele>1528.52</ele>
        <time>2018-10-11T09:01:44Z</time>
      </trkpt>
      <trkpt lat="42.97767" lon="-0.24264">
        <ele>1527.82</ele>
        <time>2018-10-11T09:01:49Z</time>
      </trkpt>
      <trkpt lat="42.97786" lon="-0.24266">
        <ele>1528.52</ele>
        <time>2018-10-11T09:01:55Z</time>
      </trkpt>
      <trkpt lat="42.97802" lon="-0.2425">
        <ele>1528.52</ele>
        <time>2018-10-11T09:02:01Z</time>
      </trkpt>
      <trkpt lat="42.97815" lon="-0.24229">
        <ele>1528.52</ele>
        <time>2018-10-11T09:02:07Z</time>
      </trkpt>
      <trkpt lat="42.9782" lon="-0.24204">
        <ele>1529.51</ele>
        <time>2018-10-11T09:02:13Z</time>
      </trkpt>
      <trkpt lat="42.9783" lon="-0.24181">
        <ele>1529.52</ele>
        <time>2018-10-11T09:02:19Z</time>
      </trkpt>
      <trkpt lat="42.97849" lon="-0.24174">
        <ele>1531.41</ele>
        <time>2018-10-11T09:02:26Z</time>
      </trkpt>
      <trkpt lat="42.97867" lon="-0.24165">
        <ele>1532.52</ele>
        <time>2018-10-11T09:02:33Z</time>
      </trkpt>
      <trkpt lat="42.97885" lon="-0.24163">
        <ele>1534.43</ele>
        <time>2018-10-11T09:02:40Z</time>
      </trkpt>
      <trkpt lat="42.97904" lon="-0.24168">
        <ele>1534.79</ele>
        <time>2018-10-11T09:02:46Z</time>
      </trkpt>
      <trkpt lat="42.97925" lon="-0.24163">
        <ele>1536.2</ele>
        <time>2018-10-11T09:02:52Z</time>
      </trkpt>
      <trkpt lat="42.97942" lon="-0.2415">
        <ele>1536.52</ele>
        <time>2018-10-11T09:02:58Z</time>
      </trkpt>
      <trkpt lat="42.97963" lon="-0.24146">
        <ele>1536.52</ele>
        <time>2018-10-11T09:03:04Z</time>
      </trkpt>
      <trkpt lat="42.97981" lon="-0.24148">
        <ele>1536.52</ele>
        <time>2018-10-11T09:03:09Z</time>
      </trkpt>
      <trkpt lat="42.98001" lon="-0.24148">
        <ele>1537.49</ele>
        <time>2018-10-11T09:03:15Z</time>
      </trkpt>
      <trkpt lat="42.98019" lon="-0.24145">
        <ele>1539.22</ele>
        <time>2018-10-11T09:03:21Z</time>
      </trkpt>
      <trkpt lat="42.98036" lon="-0.24128">
        <ele>1539.52</ele>
        <time>2018-10-11T09:03:27Z</time>
      </trkpt>
      <trkpt lat="42.9805" lon="-0.24108">
        <ele>1538.52</ele>
        <time>2018-10-11T09:03:33Z</time>
      </trkpt>
      <trkpt lat="42.98069" lon="-0.241">
        <ele>1538.52</ele>
        <time>2018-10-11T09:03:39Z</time>
      </trkpt>
      <trkpt lat="42.98088" lon="-0.24097">
        <ele>1538.52</ele>
        <time>2018-10-11T09:03:44Z</time>
      </trkpt>
      <trkpt lat="42.98102" lon="-0.24078">
        <ele>1539.51</ele>
        <time>2018-10-11T09:03:50Z</time>
      </trkpt>
      <trkpt lat="42.98113" lon="-0.24054">
        <ele>1539.52</ele>
        <time>2018-10-11T09:03:56Z</time>
      </trkpt>
      <trkpt lat="42.98127" lon="-0.24032">
        <ele>1538.52</ele>
        <time>2018-10-11T09:04:02Z</time>
      </trkpt>
      <trkpt lat="42.98141" lon="-0.2401">
        <ele>1538.23</ele>
        <time>2018-10-11T09:04:08Z</time>
      </trkpt>
      <trkpt lat="42.98158" lon="-0.23998">
        <ele>1538.52</ele>
        <time>2018-10-11T09:04:14Z</time>
      </trkpt>
      <trkpt lat="42.9817" lon="-0.24017">
        <ele>1539.52</ele>
        <time>2018-10-11T09:04:21Z</time>
      </trkpt>
      <trkpt lat="42.98183" lon="-0.24036">
        <ele>1539.52</ele>
        <time>2018-10-11T09:04:28Z</time>
      </trkpt>
      <trkpt lat="42.982" lon="-0.24029">
        <ele>1540.52</ele>
        <time>2018-10-11T09:04:35Z</time>
      </trkpt>
      <trkpt lat="42.98214" lon="-0.24011">
        <ele>1540.52</ele>
        <time>2018-10-11T09:04:42Z</time>
      </trkpt>
      <trkpt lat="42.98231" lon="-0.24001">
        <ele>1540.52</ele>
        <time>2018-10-11T09:04:49Z</time>
      </trkpt>
      <trkpt lat="42.9825" lon="-0.24002">
        <ele>1541.52</ele>
        <time>2018-10-11T09:04:56Z</time>
      </trkpt>
      <trkpt lat="42.98263" lon="-0.2402">
        <ele>1542.52</ele>
        <time>2018-10-11T09:05:04Z</time>
      </trkpt>
      <trkpt lat="42.98267" lon="-0.24045">
        <ele>1544.43</ele>
        <time>2018-10-11T09:05:12Z</time>
      </trkpt>
      <trkpt lat="42.98271" lon="-0.2407">
        <ele>1547.49</ele>
        <time>2018-10-11T09:05:20Z</time>
      </trkpt>
      <trkpt lat="42.98276" lon="-0.24095">
        <ele>1549.73</ele>
        <time>2018-10-11T09:05:29Z</time>
      </trkpt>
      <trkpt lat="42.98264" lon="-0.24115">
        <ele>1551.51</ele>
        <time>2018-10-11T09:05:38Z</time>
      </trkpt>
      <trkpt lat="42.98247" lon="-0.24125">
        <ele>1552.52</ele>
        <time>2018-10-11T09:05:48Z</time>
      </trkpt>
      <trkpt lat="42.98232" lon="-0.24141">
        <ele>1552.52</ele>
        <time>2018-10-11T09:05:58Z</time>
      </trkpt>
      <trkpt lat="42.98216" lon="-0.24153">
        <ele>1553.45</ele>
        <time>2018-10-11T09:06:08Z</time>
      </trkpt>
      <trkpt lat="42.98197" lon="-0.24162">
        <ele>1554.3</ele>
        <time>2018-10-11T09:06:18Z</time>
      </trkpt>
      <trkpt lat="42.98182" lon="-0.24175">
        <ele>1558.43</ele>
        <time>2018-10-11T09:06:27Z</time>
      </trkpt>
      <trkpt lat="42.98165" lon="-0.2419">
        <ele>1560.5</ele>
        <time>2018-10-11T09:06:37Z</time>
      </trkpt>
      <trkpt lat="42.98147" lon="-0.242">
        <ele>1562.49</ele>
        <time>2018-10-11T09:06:47Z</time>
      </trkpt>
      <trkpt lat="42.98132" lon="-0.24213">
        <ele>1564.52</ele>
        <time>2018-10-11T09:06:56Z</time>
      </trkpt>
      <trkpt lat="42.98117" lon="-0.24231">
        <ele>1567.22</ele>
        <time>2018-10-11T09:07:07Z</time>
      </trkpt>
      <trkpt lat="42.981" lon="-0.24242">
        <ele>1569.51</ele>
        <time>2018-10-11T09:07:16Z</time>
      </trkpt>
      <trkpt lat="42.98083" lon="-0.24253">
        <ele>1572.22</ele>
        <time>2018-10-11T09:07:26Z</time>
      </trkpt>
      <trkpt lat="42.98066" lon="-0.24267">
        <ele>1571.8</ele>
        <time>2018-10-11T09:07:35Z</time>
      </trkpt>
      <trkpt lat="42.98047" lon="-0.24271">
        <ele>1572.22</ele>
        <time>2018-10-11T09:08:43Z</time>
      </trkpt>
      <trkpt lat="42.98028" lon="-0.24278">
        <ele>1573.43</ele>
        <time>2018-10-11T09:08:51Z</time>
      </trkpt>
      <trkpt lat="42.98011" lon="-0.24289">
        <ele>1575.22</ele>
        <time>2018-10-11T09:08:58Z</time>
      </trkpt>
      <trkpt lat="42.97997" lon="-0.24306">
        <ele>1576.52</ele>
        <time>2018-10-11T09:09:07Z</time>
      </trkpt>
      <trkpt lat="42.97979" lon="-0.24311">
        <ele>1580.19</ele>
        <time>2018-10-11T09:09:15Z</time>
      </trkpt>
      <trkpt lat="42.97961" lon="-0.24316">
        <ele>1583.43</ele>
        <time>2018-10-11T09:09:25Z</time>
      </trkpt>
      <trkpt lat="42.97948" lon="-0.24335">
        <ele>1585.52</ele>
        <time>2018-10-11T09:09:35Z</time>
      </trkpt>
      <trkpt lat="42.97934" lon="-0.24352">
        <ele>1586.52</ele>
        <time>2018-10-11T09:09:44Z</time>
      </trkpt>
      <trkpt lat="42.97923" lon="-0.24371">
        <ele>1590.21</ele>
        <time>2018-10-11T09:11:34Z</time>
      </trkpt>
      <trkpt lat="42.97908" lon="-0.24388">
        <ele>1591.51</ele>
        <time>2018-10-11T09:11:43Z</time>
      </trkpt>
      <trkpt lat="42.97893" lon="-0.24405">
        <ele>1591.52</ele>
        <time>2018-10-11T09:11:53Z</time>
      </trkpt>
      <trkpt lat="42.97876" lon="-0.24416">
        <ele>1593.52</ele>
        <time>2018-10-11T09:12:03Z</time>
      </trkpt>
      <trkpt lat="42.97857" lon="-0.24424">
        <ele>1595.51</ele>
        <time>2018-10-11T09:12:15Z</time>
      </trkpt>
      <trkpt lat="42.97839" lon="-0.24428">
        <ele>1597.51</ele>
        <time>2018-10-11T09:12:26Z</time>
      </trkpt>
      <trkpt lat="42.9782" lon="-0.24437">
        <ele>1597.82</ele>
        <time>2018-10-11T09:12:35Z</time>
      </trkpt>
      <trkpt lat="42.97805" lon="-0.24453">
        <ele>1597.55</ele>
        <time>2018-10-11T09:12:44Z</time>
      </trkpt>
      <trkpt lat="42.97787" lon="-0.24463">
        <ele>1596.52</ele>
        <time>2018-10-11T09:12:51Z</time>
      </trkpt>
      <trkpt lat="42.97768" lon="-0.24463">
        <ele>1595.59</ele>
        <time>2018-10-11T09:12:57Z</time>
      </trkpt>
      <trkpt lat="42.97747" lon="-0.24468">
        <ele>1593.91</ele>
        <time>2018-10-11T09:13:02Z</time>
      </trkpt>
      <trkpt lat="42.97726" lon="-0.24469">
        <ele>1592.55</ele>
        <time>2018-10-11T09:13:06Z</time>
      </trkpt>
      <trkpt lat="42.97705" lon="-0.24469">
        <ele>1591.82</ele>
        <time>2018-10-11T09:13:10Z</time>
      </trkpt>
      <trkpt lat="42.97688" lon="-0.24462">
        <ele>1592.52</ele>
        <time>2018-10-11T09:13:25Z</time>
      </trkpt>
      <trkpt lat="42.97706" lon="-0.2447">
        <ele>1591.52</ele>
        <time>2018-10-11T09:15:04Z</time>
      </trkpt>
      <trkpt lat="42.97725" lon="-0.24478">
        <ele>1592.22</ele>
        <time>2018-10-11T09:15:13Z</time>
      </trkpt>
      <trkpt lat="42.97744" lon="-0.24475">
        <ele>1593.53</ele>
        <time>2018-10-11T09:15:23Z</time>
      </trkpt>
      <trkpt lat="42.97762" lon="-0.24471">
        <ele>1594.51</ele>
        <time>2018-10-11T09:15:32Z</time>
      </trkpt>
      <trkpt lat="42.9778" lon="-0.24463">
        <ele>1595.82</ele>
        <time>2018-10-11T09:15:42Z</time>
      </trkpt>
      <trkpt lat="42.97797" lon="-0.24458">
        <ele>1597.52</ele>
        <time>2018-10-11T09:15:52Z</time>
      </trkpt>
      <trkpt lat="42.97815" lon="-0.24445">
        <ele>1599.22</ele>
        <time>2018-10-11T09:16:02Z</time>
      </trkpt>
      <trkpt lat="42.97831" lon="-0.24431">
        <ele>1599.52</ele>
        <time>2018-10-11T09:16:12Z</time>
      </trkpt>
      <trkpt lat="42.97849" lon="-0.24423">
        <ele>1598.52</ele>
        <time>2018-10-11T09:16:24Z</time>
      </trkpt>
      <trkpt lat="42.97868" lon="-0.24417">
        <ele>1598.52</ele>
        <time>2018-10-11T09:16:34Z</time>
      </trkpt>
      <trkpt lat="42.97888" lon="-0.24409">
        <ele>1597.55</ele>
        <time>2018-10-11T09:16:41Z</time>
      </trkpt>
      <trkpt lat="42.97905" lon="-0.24395">
        <ele>1595.82</ele>
        <time>2018-10-11T09:16:46Z</time>
      </trkpt>
      <trkpt lat="42.97917" lon="-0.24376">
        <ele>1595.52</ele>
        <time>2018-10-11T09:16:53Z</time>
      </trkpt>
      <trkpt lat="42.97933" lon="-0.24355">
        <ele>1593.61</ele>
        <time>2018-10-11T09:17:02Z</time>
      </trkpt>
      <trkpt lat="42.97948" lon="-0.24336">
        <ele>1590.94</ele>
        <time>2018-10-11T09:17:07Z</time>
      </trkpt>
      <trkpt lat="42.97962" lon="-0.24316">
        <ele>1588.61</ele>
        <time>2018-10-11T09:17:13Z</time>
      </trkpt>
      <trkpt lat="42.97979" lon="-0.24305">
        <ele>1585.91</ele>
        <time>2018-10-11T09:17:20Z</time>
      </trkpt>
      <trkpt lat="42.97998" lon="-0.24305">
        <ele>1581.65</ele>
        <time>2018-10-11T09:17:25Z</time>
      </trkpt>
      <trkpt lat="42.98012" lon="-0.24286">
        <ele>1578.85</ele>
        <time>2018-10-11T09:17:31Z</time>
      </trkpt>
      <trkpt lat="42.98029" lon="-0.24277">
        <ele>1575.83</ele>
        <time>2018-10-11T09:17:40Z</time>
      </trkpt>
      <trkpt lat="42.98047" lon="-0.24271">
        <ele>1574.32</ele>
        <time>2018-10-11T09:17:46Z</time>
      </trkpt>
      <trkpt lat="42.98066" lon="-0.24266">
        <ele>1573.52</ele>
        <time>2018-10-11T09:17:54Z</time>
      </trkpt>
      <trkpt lat="42.98083" lon="-0.24254">
        <ele>1572.52</ele>
        <time>2018-10-11T09:18:04Z</time>
      </trkpt>
      <trkpt lat="42.981" lon="-0.24245">
        <ele>1572.25</ele>
        <time>2018-10-11T09:18:13Z</time>
      </trkpt>
      <trkpt lat="42.98117" lon="-0.24232">
        <ele>1569.65</ele>
        <time>2018-10-11T09:18:19Z</time>
      </trkpt>
      <trkpt lat="42.98132" lon="-0.24214">
        <ele>1568.55</ele>
        <time>2018-10-11T09:18:26Z</time>
      </trkpt>
      <trkpt lat="42.98151" lon="-0.24198">
        <ele>1565.86</ele>
        <time>2018-10-11T09:18:32Z</time>
      </trkpt>
      <trkpt lat="42.9817" lon="-0.24186">
        <ele>1562.64</ele>
        <time>2018-10-11T09:18:37Z</time>
      </trkpt>
      <trkpt lat="42.98185" lon="-0.24168">
        <ele>1559</ele>
        <time>2018-10-11T09:18:42Z</time>
      </trkpt>
      <trkpt lat="42.98193" lon="-0.2414">
        <ele>1556.56</ele>
        <time>2018-10-11T09:18:46Z</time>
      </trkpt>
      <trkpt lat="42.98206" lon="-0.24121">
        <ele>1558.52</ele>
        <time>2018-10-11T09:18:54Z</time>
      </trkpt>
      <trkpt lat="42.98225" lon="-0.24126">
        <ele>1554.85</ele>
        <time>2018-10-11T09:19:03Z</time>
      </trkpt>
      <trkpt lat="42.98243" lon="-0.24122">
        <ele>1552.61</ele>
        <time>2018-10-11T09:19:10Z</time>
      </trkpt>
      <trkpt lat="42.98262" lon="-0.24115">
        <ele>1550.82</ele>
        <time>2018-10-11T09:19:17Z</time>
      </trkpt>
      <trkpt lat="42.98273" lon="-0.24137">
        <ele>1545.91</ele>
        <time>2018-10-11T09:20:38Z</time>
      </trkpt>
      <trkpt lat="42.98262" lon="-0.24162">
        <ele>1543.83</ele>
        <time>2018-10-11T09:20:42Z</time>
      </trkpt>
      <trkpt lat="42.9825" lon="-0.2419">
        <ele>1542.55</ele>
        <time>2018-10-11T09:20:46Z</time>
      </trkpt>
      <trkpt lat="42.98241" lon="-0.24212">
        <ele>1540.85</ele>
        <time>2018-10-11T09:20:49Z</time>
      </trkpt>
      <trkpt lat="42.98234" lon="-0.24238">
        <ele>1540.32</ele>
        <time>2018-10-11T09:20:52Z</time>
      </trkpt>
      <trkpt lat="42.9823" lon="-0.24266">
        <ele>1539.54</ele>
        <time>2018-10-11T09:20:55Z</time>
      </trkpt>
      <trkpt lat="42.98219" lon="-0.24293">
        <ele>1539.52</ele>
        <time>2018-10-11T09:20:58Z</time>
      </trkpt>
      <trkpt lat="42.98202" lon="-0.24313">
        <ele>1538.55</ele>
        <time>2018-10-11T09:21:01Z</time>
      </trkpt>
      <trkpt lat="42.98183" lon="-0.2433">
        <ele>1538.52</ele>
        <time>2018-10-11T09:21:04Z</time>
      </trkpt>
      <trkpt lat="42.98163" lon="-0.24351">
        <ele>1537.55</ele>
        <time>2018-10-11T09:21:07Z</time>
      </trkpt>
      <trkpt lat="42.98146" lon="-0.24376">
        <ele>1536.55</ele>
        <time>2018-10-11T09:21:10Z</time>
      </trkpt>
      <trkpt lat="42.98141" lon="-0.24406">
        <ele>1535.82</ele>
        <time>2018-10-11T09:21:13Z</time>
      </trkpt>
      <trkpt lat="42.98135" lon="-0.24431">
        <ele>1534.83</ele>
        <time>2018-10-11T09:21:16Z</time>
      </trkpt>
      <trkpt lat="42.98116" lon="-0.24444">
        <ele>1532.92</ele>
        <time>2018-10-11T09:21:19Z</time>
      </trkpt>
      <trkpt lat="42.9809" lon="-0.24456">
        <ele>1530.86</ele>
        <time>2018-10-11T09:21:22Z</time>
      </trkpt>
      <trkpt lat="42.98067" lon="-0.24472">
        <ele>1529.62</ele>
        <time>2018-10-11T09:21:25Z</time>
      </trkpt>
      <trkpt lat="42.98053" lon="-0.24496">
        <ele>1528.55</ele>
        <time>2018-10-11T09:21:28Z</time>
      </trkpt>
      <trkpt lat="42.98061" lon="-0.24524">
        <ele>1527.61</ele>
        <time>2018-10-11T09:21:31Z</time>
      </trkpt>
      <trkpt lat="42.98064" lon="-0.24554">
        <ele>1526.61</ele>
        <time>2018-10-11T09:21:34Z</time>
      </trkpt>
      <trkpt lat="42.98051" lon="-0.24584">
        <ele>1524.64</ele>
        <time>2018-10-11T09:21:37Z</time>
      </trkpt>
      <trkpt lat="42.98045" lon="-0.24618">
        <ele>1522.85</ele>
        <time>2018-10-11T09:21:40Z</time>
      </trkpt>
      <trkpt lat="42.98047" lon="-0.24652">
        <ele>1520.71</ele>
        <time>2018-10-11T09:21:43Z</time>
      </trkpt>
      <trkpt lat="42.98053" lon="-0.24684">
        <ele>1518.64</ele>
        <time>2018-10-11T09:21:46Z</time>
      </trkpt>
      <trkpt lat="42.98051" lon="-0.2471">
        <ele>1516.85</ele>
        <time>2018-10-11T09:21:49Z</time>
      </trkpt>
      <trkpt lat="42.98065" lon="-0.24694">
        <ele>1511.86</ele>
        <time>2018-10-11T09:22:19Z</time>
      </trkpt>
      <trkpt lat="42.98064" lon="-0.24668">
        <ele>1508.86</ele>
        <time>2018-10-11T09:22:23Z</time>
      </trkpt>
      <trkpt lat="42.98067" lon="-0.24641">
        <ele>1505.95</ele>
        <time>2018-10-11T09:22:26Z</time>
      </trkpt>
      <trkpt lat="42.98077" lon="-0.24614">
        <ele>1505.53</ele>
        <time>2018-10-11T09:22:29Z</time>
      </trkpt>
      <trkpt lat="42.98092" lon="-0.24589">
        <ele>1503.85</ele>
        <time>2018-10-11T09:22:32Z</time>
      </trkpt>
      <trkpt lat="42.98108" lon="-0.24565">
        <ele>1502.83</ele>
        <time>2018-10-11T09:22:35Z</time>
      </trkpt>
      <trkpt lat="42.98124" lon="-0.24539">
        <ele>1500.92</ele>
        <time>2018-10-11T09:22:38Z</time>
      </trkpt>
      <trkpt lat="42.98144" lon="-0.24517">
        <ele>1499.62</ele>
        <time>2018-10-11T09:22:41Z</time>
      </trkpt>
      <trkpt lat="42.98166" lon="-0.24505">
        <ele>1498.55</ele>
        <time>2018-10-11T09:22:44Z</time>
      </trkpt>
      <trkpt lat="42.98187" lon="-0.24494">
        <ele>1496.85</ele>
        <time>2018-10-11T09:22:47Z</time>
      </trkpt>
      <trkpt lat="42.9821" lon="-0.24483">
        <ele>1495.62</ele>
        <time>2018-10-11T09:22:50Z</time>
      </trkpt>
      <trkpt lat="42.98234" lon="-0.24482">
        <ele>1494.55</ele>
        <time>2018-10-11T09:22:53Z</time>
      </trkpt>
      <trkpt lat="42.98254" lon="-0.24471">
        <ele>1493.55</ele>
        <time>2018-10-11T09:22:56Z</time>
      </trkpt>
      <trkpt lat="42.98269" lon="-0.24447">
        <ele>1492.61</ele>
        <time>2018-10-11T09:22:59Z</time>
      </trkpt>
      <trkpt lat="42.98283" lon="-0.24426">
        <ele>1490.85</ele>
        <time>2018-10-11T09:23:02Z</time>
      </trkpt>
      <trkpt lat="42.98301" lon="-0.24434">
        <ele>1490.53</ele>
        <time>2018-10-11T09:23:05Z</time>
      </trkpt>
      <trkpt lat="42.98318" lon="-0.24449">
        <ele>1487.85</ele>
        <time>2018-10-11T09:23:10Z</time>
      </trkpt>
      <trkpt lat="42.98339" lon="-0.24452">
        <ele>1485.53</ele>
        <time>2018-10-11T09:23:16Z</time>
      </trkpt>
      <trkpt lat="42.9836" lon="-0.24451">
        <ele>1484.82</ele>
        <time>2018-10-11T09:23:21Z</time>
      </trkpt>
      <trkpt lat="42.9838" lon="-0.24456">
        <ele>1482.62</ele>
        <time>2018-10-11T09:23:25Z</time>
      </trkpt>
      <trkpt lat="42.984" lon="-0.24461">
        <ele>1479.62</ele>
        <time>2018-10-11T09:23:30Z</time>
      </trkpt>
      <trkpt lat="42.98418" lon="-0.24471">
        <ele>1478.53</ele>
        <time>2018-10-11T09:23:35Z</time>
      </trkpt>
      <trkpt lat="42.98438" lon="-0.24481">
        <ele>1476.56</ele>
        <time>2018-10-11T09:23:39Z</time>
      </trkpt>
      <trkpt lat="42.98451" lon="-0.24497">
        <ele>1475.55</ele>
        <time>2018-10-11T09:23:43Z</time>
      </trkpt>
      <trkpt lat="42.9847" lon="-0.24514">
        <ele>1473.61</ele>
        <time>2018-10-11T09:23:48Z</time>
      </trkpt>
      <trkpt lat="42.98487" lon="-0.24532">
        <ele>1471.85</ele>
        <time>2018-10-11T09:23:52Z</time>
      </trkpt>
      <trkpt lat="42.98501" lon="-0.2455">
        <ele>1470.62</ele>
        <time>2018-10-11T09:23:55Z</time>
      </trkpt>
      <trkpt lat="42.98513" lon="-0.2457">
        <ele>1468.64</ele>
        <time>2018-10-11T09:23:58Z</time>
      </trkpt>
      <trkpt lat="42.98527" lon="-0.24589">
        <ele>1466.92</ele>
        <time>2018-10-11T09:24:01Z</time>
      </trkpt>
      <trkpt lat="42.98544" lon="-0.24605">
        <ele>1465.62</ele>
        <time>2018-10-11T09:24:04Z</time>
      </trkpt>
      <trkpt lat="42.98568" lon="-0.24609">
        <ele>1466.43</ele>
        <time>2018-10-11T09:24:07Z</time>
      </trkpt>
      <trkpt lat="42.98591" lon="-0.24604">
        <ele>1467.49</ele>
        <time>2018-10-11T09:24:10Z</time>
      </trkpt>
      <trkpt lat="42.98614" lon="-0.24595">
        <ele>1465.85</ele>
        <time>2018-10-11T09:24:13Z</time>
      </trkpt>
      <trkpt lat="42.98629" lon="-0.2457">
        <ele>1464.83</ele>
        <time>2018-10-11T09:24:16Z</time>
      </trkpt>
      <trkpt lat="42.98631" lon="-0.24536">
        <ele>1462.86</ele>
        <time>2018-10-11T09:24:19Z</time>
      </trkpt>
      <trkpt lat="42.98626" lon="-0.24505">
        <ele>1461.62</ele>
        <time>2018-10-11T09:24:22Z</time>
      </trkpt>
      <trkpt lat="42.98624" lon="-0.24475">
        <ele>1459.85</ele>
        <time>2018-10-11T09:24:25Z</time>
      </trkpt>
      <trkpt lat="42.98622" lon="-0.24446">
        <ele>1459.53</ele>
        <time>2018-10-11T09:24:28Z</time>
      </trkpt>
      <trkpt lat="42.98621" lon="-0.24417">
        <ele>1458.55</ele>
        <time>2018-10-11T09:24:31Z</time>
      </trkpt>
      <trkpt lat="42.9862" lon="-0.24385">
        <ele>1460.2</ele>
        <time>2018-10-11T09:24:35Z</time>
      </trkpt>
      <trkpt lat="42.98624" lon="-0.24356">
        <ele>1460.52</ele>
        <time>2018-10-11T09:24:40Z</time>
      </trkpt>
      <trkpt lat="42.98624" lon="-0.2433">
        <ele>1461.52</ele>
        <time>2018-10-11T09:24:46Z</time>
      </trkpt>
      <trkpt lat="42.98628" lon="-0.24306">
        <ele>1463.51</ele>
        <time>2018-10-11T09:24:54Z</time>
      </trkpt>
      <trkpt lat="42.98629" lon="-0.24279">
        <ele>1464.52</ele>
        <time>2018-10-11T09:25:03Z</time>
      </trkpt>
      <trkpt lat="42.98629" lon="-0.24252">
        <ele>1465.52</ele>
        <time>2018-10-11T09:25:11Z</time>
      </trkpt>
      <trkpt lat="42.98627" lon="-0.24227">
        <ele>1466.23</ele>
        <time>2018-10-11T09:25:19Z</time>
      </trkpt>
      <trkpt lat="42.98631" lon="-0.24202">
        <ele>1468.49</ele>
        <time>2018-10-11T09:25:27Z</time>
      </trkpt>
      <trkpt lat="42.98634" lon="-0.24176">
        <ele>1471.22</ele>
        <time>2018-10-11T09:25:36Z</time>
      </trkpt>
      <trkpt lat="42.98636" lon="-0.24149">
        <ele>1472.43</ele>
        <time>2018-10-11T09:25:45Z</time>
      </trkpt>
      <trkpt lat="42.98637" lon="-0.24124">
        <ele>1472.52</ele>
        <time>2018-10-11T09:25:54Z</time>
      </trkpt>
      <trkpt lat="42.98637" lon="-0.24099">
        <ele>1473.43</ele>
        <time>2018-10-11T09:26:04Z</time>
      </trkpt>
      <trkpt lat="42.98644" lon="-0.24076">
        <ele>1473.52</ele>
        <time>2018-10-11T09:26:13Z</time>
      </trkpt>
      <trkpt lat="42.98651" lon="-0.24052">
        <ele>1475.22</ele>
        <time>2018-10-11T09:26:22Z</time>
      </trkpt>
      <trkpt lat="42.98655" lon="-0.24026">
        <ele>1477.52</ele>
        <time>2018-10-11T09:26:32Z</time>
      </trkpt>
      <trkpt lat="42.98659" lon="-0.24">
        <ele>1477.82</ele>
        <time>2018-10-11T09:26:41Z</time>
      </trkpt>
      <trkpt lat="42.98663" lon="-0.23975">
        <ele>1478.52</ele>
        <time>2018-10-11T09:26:49Z</time>
      </trkpt>
      <trkpt lat="42.98662" lon="-0.23949">
        <ele>1478.59</ele>
        <time>2018-10-11T09:26:58Z</time>
      </trkpt>
      <trkpt lat="42.98659" lon="-0.23925">
        <ele>1480.52</ele>
        <time>2018-10-11T09:27:07Z</time>
      </trkpt>
      <trkpt lat="42.98649" lon="-0.23901">
        <ele>1481.43</ele>
        <time>2018-10-11T09:27:29Z</time>
      </trkpt>
      <trkpt lat="42.98635" lon="-0.23884">
        <ele>1481.52</ele>
        <time>2018-10-11T09:27:36Z</time>
      </trkpt>
      <trkpt lat="42.98618" lon="-0.2387">
        <ele>1482.52</ele>
        <time>2018-10-11T09:27:44Z</time>
      </trkpt>
      <trkpt lat="42.986" lon="-0.23855">
        <ele>1483.52</ele>
        <time>2018-10-11T09:27:53Z</time>
      </trkpt>
      <trkpt lat="42.98588" lon="-0.23836">
        <ele>1484.43</ele>
        <time>2018-10-11T09:28:01Z</time>
      </trkpt>
      <trkpt lat="42.98578" lon="-0.23815">
        <ele>1484.52</ele>
        <time>2018-10-11T09:28:09Z</time>
      </trkpt>
      <trkpt lat="42.98574" lon="-0.23789">
        <ele>1485.22</ele>
        <time>2018-10-11T09:28:18Z</time>
      </trkpt>
      <trkpt lat="42.98569" lon="-0.23764">
        <ele>1485.52</ele>
        <time>2018-10-11T09:28:26Z</time>
      </trkpt>
      <trkpt lat="42.98562" lon="-0.2374">
        <ele>1485.51</ele>
        <time>2018-10-11T09:28:35Z</time>
      </trkpt>
      <trkpt lat="42.98559" lon="-0.23716">
        <ele>1485.52</ele>
        <time>2018-10-11T09:28:43Z</time>
      </trkpt>
      <trkpt lat="42.98557" lon="-0.23691">
        <ele>1489.21</ele>
        <time>2018-10-11T09:28:52Z</time>
      </trkpt>
      <trkpt lat="42.98557" lon="-0.23664">
        <ele>1493.19</ele>
        <time>2018-10-11T09:29:02Z</time>
      </trkpt>
      <trkpt lat="42.98557" lon="-0.23637">
        <ele>1494.81</ele>
        <time>2018-10-11T09:29:11Z</time>
      </trkpt>
      <trkpt lat="42.98546" lon="-0.23616">
        <ele>1497.52</ele>
        <time>2018-10-11T09:29:21Z</time>
      </trkpt>
      <trkpt lat="42.98547" lon="-0.23589">
        <ele>1496.52</ele>
        <time>2018-10-11T09:29:30Z</time>
      </trkpt>
      <trkpt lat="42.9855" lon="-0.23562">
        <ele>1498.52</ele>
        <time>2018-10-11T09:29:40Z</time>
      </trkpt>
      <trkpt lat="42.98548" lon="-0.23535">
        <ele>1500.51</ele>
        <time>2018-10-11T09:29:50Z</time>
      </trkpt>
      <trkpt lat="42.98555" lon="-0.23512">
        <ele>1501.52</ele>
        <time>2018-10-11T09:29:59Z</time>
      </trkpt>
      <trkpt lat="42.98567" lon="-0.23492">
        <ele>1504.22</ele>
        <time>2018-10-11T09:30:08Z</time>
      </trkpt>
      <trkpt lat="42.98574" lon="-0.23466">
        <ele>1506.52</ele>
        <time>2018-10-11T09:30:17Z</time>
      </trkpt>
      <trkpt lat="42.98582" lon="-0.23442">
        <ele>1507.43</ele>
        <time>2018-10-11T09:30:26Z</time>
      </trkpt>
      <trkpt lat="42.98585" lon="-0.23416">
        <ele>1508.52</ele>
        <time>2018-10-11T09:30:35Z</time>
      </trkpt>
      <trkpt lat="42.98584" lon="-0.23389">
        <ele>1509.52</ele>
        <time>2018-10-11T09:30:44Z</time>
      </trkpt>
      <trkpt lat="42.98587" lon="-0.23361">
        <ele>1510.49</ele>
        <time>2018-10-11T09:30:52Z</time>
      </trkpt>
      <trkpt lat="42.98581" lon="-0.23337">
        <ele>1511.51</ele>
        <time>2018-10-11T09:30:56Z</time>
      </trkpt>
      <trkpt lat="42.98567" lon="-0.23313">
        <ele>1512.51</ele>
        <time>2018-10-11T09:31:00Z</time>
      </trkpt>
      <trkpt lat="42.98566" lon="-0.23287">
        <ele>1513.28</ele>
        <time>2018-10-11T09:31:03Z</time>
      </trkpt>
      <trkpt lat="42.98572" lon="-0.23256">
        <ele>1512.54</ele>
        <time>2018-10-11T09:31:06Z</time>
      </trkpt>
      <trkpt lat="42.98577" lon="-0.23227">
        <ele>1512.52</ele>
        <time>2018-10-11T09:31:09Z</time>
      </trkpt>
      <trkpt lat="42.98579" lon="-0.232">
        <ele>1512.52</ele>
        <time>2018-10-11T09:31:12Z</time>
      </trkpt>
      <trkpt lat="42.98583" lon="-0.23176">
        <ele>1513.22</ele>
        <time>2018-10-11T09:31:15Z</time>
      </trkpt>
      <trkpt lat="42.98583" lon="-0.23151">
        <ele>1514.22</ele>
        <time>2018-10-11T09:31:19Z</time>
      </trkpt>
      <trkpt lat="42.9858" lon="-0.23123">
        <ele>1516.49</ele>
        <time>2018-10-11T09:32:04Z</time>
      </trkpt>
      <trkpt lat="42.98575" lon="-0.23099">
        <ele>1517.52</ele>
        <time>2018-10-11T09:32:10Z</time>
      </trkpt>
      <trkpt lat="42.98569" lon="-0.23073">
        <ele>1520.43</ele>
        <time>2018-10-11T09:32:19Z</time>
      </trkpt>
      <trkpt lat="42.98562" lon="-0.2305">
        <ele>1525.19</ele>
        <time>2018-10-11T09:32:28Z</time>
      </trkpt>
      <trkpt lat="42.98554" lon="-0.23025">
        <ele>1526.49</ele>
        <time>2018-10-11T09:32:38Z</time>
      </trkpt>
      <trkpt lat="42.98538" lon="-0.2301">
        <ele>1528.73</ele>
        <time>2018-10-11T09:32:46Z</time>
      </trkpt>
      <trkpt lat="42.98528" lon="-0.22989">
        <ele>1529.73</ele>
        <time>2018-10-11T09:32:55Z</time>
      </trkpt>
      <trkpt lat="42.98523" lon="-0.22964">
        <ele>1531.44</ele>
        <time>2018-10-11T09:33:04Z</time>
      </trkpt>
      <trkpt lat="42.98517" lon="-0.22939">
        <ele>1532.43</ele>
        <time>2018-10-11T09:33:16Z</time>
      </trkpt>
      <trkpt lat="42.9852" lon="-0.22914">
        <ele>1532.61</ele>
        <time>2018-10-11T09:33:26Z</time>
      </trkpt>
      <trkpt lat="42.98527" lon="-0.22889">
        <ele>1533.52</ele>
        <time>2018-10-11T09:33:36Z</time>
      </trkpt>
      <trkpt lat="42.9854" lon="-0.2287">
        <ele>1534.52</ele>
        <time>2018-10-11T09:33:46Z</time>
      </trkpt>
      <trkpt lat="42.98556" lon="-0.22857">
        <ele>1534.52</ele>
        <time>2018-10-11T09:33:53Z</time>
      </trkpt>
      <trkpt lat="42.98572" lon="-0.22845">
        <ele>1535.43</ele>
        <time>2018-10-11T09:34:00Z</time>
      </trkpt>
      <trkpt lat="42.9859" lon="-0.22835">
        <ele>1535.52</ele>
        <time>2018-10-11T09:34:07Z</time>
      </trkpt>
      <trkpt lat="42.9861" lon="-0.22829">
        <ele>1536.52</ele>
        <time>2018-10-11T09:34:15Z</time>
      </trkpt>
      <trkpt lat="42.98628" lon="-0.22826">
        <ele>1538.49</ele>
        <time>2018-10-11T09:34:22Z</time>
      </trkpt>
      <trkpt lat="42.98647" lon="-0.22826">
        <ele>1539.51</ele>
        <time>2018-10-11T09:34:29Z</time>
      </trkpt>
      <trkpt lat="42.98666" lon="-0.22825">
        <ele>1540.52</ele>
        <time>2018-10-11T09:34:36Z</time>
      </trkpt>
      <trkpt lat="42.98684" lon="-0.22819">
        <ele>1540.55</ele>
        <time>2018-10-11T09:34:43Z</time>
      </trkpt>
      <trkpt lat="42.98699" lon="-0.22804">
        <ele>1540.52</ele>
        <time>2018-10-11T09:34:49Z</time>
      </trkpt>
      <trkpt lat="42.98707" lon="-0.2278">
        <ele>1542.14</ele>
        <time>2018-10-11T09:34:55Z</time>
      </trkpt>
      <trkpt lat="42.98724" lon="-0.22769">
        <ele>1543.58</ele>
        <time>2018-10-11T09:35:00Z</time>
      </trkpt>
      <trkpt lat="42.98745" lon="-0.2276">
        <ele>1544.52</ele>
        <time>2018-10-11T09:35:05Z</time>
      </trkpt>
      <trkpt lat="42.98767" lon="-0.22752">
        <ele>1543.52</ele>
        <time>2018-10-11T09:35:10Z</time>
      </trkpt>
      <trkpt lat="42.98784" lon="-0.22743">
        <ele>1541.61</ele>
        <time>2018-10-11T09:35:15Z</time>
      </trkpt>
      <trkpt lat="42.98802" lon="-0.22734">
        <ele>1542.43</ele>
        <time>2018-10-11T09:35:20Z</time>
      </trkpt>
      <trkpt lat="42.98821" lon="-0.22724">
        <ele>1541.82</ele>
        <time>2018-10-11T09:35:24Z</time>
      </trkpt>
      <trkpt lat="42.98837" lon="-0.22713">
        <ele>1541.52</ele>
        <time>2018-10-11T09:35:28Z</time>
      </trkpt>
      <trkpt lat="42.98857" lon="-0.22707">
        <ele>1542.22</ele>
        <time>2018-10-11T09:35:32Z</time>
      </trkpt>
      <trkpt lat="42.98877" lon="-0.22704">
        <ele>1542.52</ele>
        <time>2018-10-11T09:35:36Z</time>
      </trkpt>
      <trkpt lat="42.98899" lon="-0.22696">
        <ele>1542.52</ele>
        <time>2018-10-11T09:35:40Z</time>
      </trkpt>
      <trkpt lat="42.98921" lon="-0.22688">
        <ele>1543.43</ele>
        <time>2018-10-11T09:35:45Z</time>
      </trkpt>
      <trkpt lat="42.98942" lon="-0.22684">
        <ele>1543.52</ele>
        <time>2018-10-11T09:35:50Z</time>
      </trkpt>
      <trkpt lat="42.98963" lon="-0.22688">
        <ele>1542.82</ele>
        <time>2018-10-11T09:35:55Z</time>
      </trkpt>
      <trkpt lat="42.98983" lon="-0.22697">
        <ele>1541.61</ele>
        <time>2018-10-11T09:35:59Z</time>
      </trkpt>
      <trkpt lat="42.99003" lon="-0.22711">
        <ele>1539.85</ele>
        <time>2018-10-11T09:36:03Z</time>
      </trkpt>
      <trkpt lat="42.99021" lon="-0.22719">
        <ele>1538.62</ele>
        <time>2018-10-11T09:36:06Z</time>
      </trkpt>
      <trkpt lat="42.9904" lon="-0.22725">
        <ele>1537.61</ele>
        <time>2018-10-11T09:36:09Z</time>
      </trkpt>
      <trkpt lat="42.99058" lon="-0.22719">
        <ele>1537.52</ele>
        <time>2018-10-11T09:36:12Z</time>
      </trkpt>
      <trkpt lat="42.99074" lon="-0.22708">
        <ele>1536.82</ele>
        <time>2018-10-11T09:36:15Z</time>
      </trkpt>
      <trkpt lat="42.99092" lon="-0.22695">
        <ele>1537.5</ele>
        <time>2018-10-11T09:36:19Z</time>
      </trkpt>
      <trkpt lat="42.9911" lon="-0.22678">
        <ele>1538.51</ele>
        <time>2018-10-11T09:36:23Z</time>
      </trkpt>
      <trkpt lat="42.99126" lon="-0.22659">
        <ele>1538.22</ele>
        <time>2018-10-11T09:36:28Z</time>
      </trkpt>
      <trkpt lat="42.9914" lon="-0.22642">
        <ele>1536.61</ele>
        <time>2018-10-11T09:36:36Z</time>
      </trkpt>
      <trkpt lat="42.99147" lon="-0.22618">
        <ele>1534.52</ele>
        <time>2018-10-11T09:36:44Z</time>
      </trkpt>
      <trkpt lat="42.99149" lon="-0.2259">
        <ele>1533.52</ele>
        <time>2018-10-11T09:36:53Z</time>
      </trkpt>
      <trkpt lat="42.99139" lon="-0.22568">
        <ele>1533.52</ele>
        <time>2018-10-11T09:37:02Z</time>
      </trkpt>
      <trkpt lat="42.99125" lon="-0.22548">
        <ele>1533.61</ele>
        <time>2018-10-11T09:37:10Z</time>
      </trkpt>
      <trkpt lat="42.99111" lon="-0.2253">
        <ele>1534.51</ele>
        <time>2018-10-11T09:37:17Z</time>
      </trkpt>
      <trkpt lat="42.99098" lon="-0.22508">
        <ele>1535.43</ele>
        <time>2018-10-11T09:37:24Z</time>
      </trkpt>
      <trkpt lat="42.99094" lon="-0.22482">
        <ele>1535.52</ele>
        <time>2018-10-11T09:37:30Z</time>
      </trkpt>
      <trkpt lat="42.99086" lon="-0.22457">
        <ele>1535.23</ele>
        <time>2018-10-11T09:37:36Z</time>
      </trkpt>
      <trkpt lat="42.99078" lon="-0.22433">
        <ele>1536.52</ele>
        <time>2018-10-11T09:37:43Z</time>
      </trkpt>
      <trkpt lat="42.99071" lon="-0.2241">
        <ele>1536.52</ele>
        <time>2018-10-11T09:37:49Z</time>
      </trkpt>
      <trkpt lat="42.99063" lon="-0.22386">
        <ele>1535.52</ele>
        <time>2018-10-11T09:37:55Z</time>
      </trkpt>
      <trkpt lat="42.99056" lon="-0.22359">
        <ele>1535.52</ele>
        <time>2018-10-11T09:38:01Z</time>
      </trkpt>
      <trkpt lat="42.99046" lon="-0.22335">
        <ele>1536.49</ele>
        <time>2018-10-11T09:38:07Z</time>
      </trkpt>
      <trkpt lat="42.99033" lon="-0.22314">
        <ele>1537.22</ele>
        <time>2018-10-11T09:38:13Z</time>
      </trkpt>
      <trkpt lat="42.99017" lon="-0.223">
        <ele>1537.79</ele>
        <time>2018-10-11T09:38:18Z</time>
      </trkpt>
      <trkpt lat="42.99001" lon="-0.22285">
        <ele>1538.5</ele>
        <time>2018-10-11T09:38:23Z</time>
      </trkpt>
      <trkpt lat="42.98985" lon="-0.22266">
        <ele>1538.44</ele>
        <time>2018-10-11T09:38:28Z</time>
      </trkpt>
      <trkpt lat="42.9897" lon="-0.22248">
        <ele>1537.82</ele>
        <time>2018-10-11T09:38:33Z</time>
      </trkpt>
      <trkpt lat="42.98953" lon="-0.22231">
        <ele>1538.43</ele>
        <time>2018-10-11T09:38:38Z</time>
      </trkpt>
      <trkpt lat="42.98938" lon="-0.2221">
        <ele>1540.44</ele>
        <time>2018-10-11T09:38:44Z</time>
      </trkpt>
      <trkpt lat="42.98925" lon="-0.22193">
        <ele>1539.82</ele>
        <time>2018-10-11T09:38:49Z</time>
      </trkpt>
      <trkpt lat="42.98903" lon="-0.22189">
        <ele>1540.43</ele>
        <time>2018-10-11T09:38:53Z</time>
      </trkpt>
      <trkpt lat="42.98884" lon="-0.22188">
        <ele>1541.51</ele>
        <time>2018-10-11T09:38:57Z</time>
      </trkpt>
      <trkpt lat="42.98868" lon="-0.22171">
        <ele>1541.52</ele>
        <time>2018-10-11T09:39:01Z</time>
      </trkpt>
      <trkpt lat="42.98861" lon="-0.22146">
        <ele>1539.62</ele>
        <time>2018-10-11T09:39:06Z</time>
      </trkpt>
      <trkpt lat="42.98856" lon="-0.22119">
        <ele>1537.82</ele>
        <time>2018-10-11T09:39:11Z</time>
      </trkpt>
      <trkpt lat="42.98855" lon="-0.22092">
        <ele>1537.52</ele>
        <time>2018-10-11T09:39:16Z</time>
      </trkpt>
      <trkpt lat="42.98854" lon="-0.22066">
        <ele>1538.51</ele>
        <time>2018-10-11T09:39:21Z</time>
      </trkpt>
      <trkpt lat="42.98855" lon="-0.22037">
        <ele>1537.61</ele>
        <time>2018-10-11T09:39:26Z</time>
      </trkpt>
      <trkpt lat="42.9886" lon="-0.2201">
        <ele>1537.52</ele>
        <time>2018-10-11T09:39:31Z</time>
      </trkpt>
      <trkpt lat="42.98867" lon="-0.2198">
        <ele>1535.62</ele>
        <time>2018-10-11T09:39:36Z</time>
      </trkpt>
      <trkpt lat="42.98871" lon="-0.21949">
        <ele>1536.5</ele>
        <time>2018-10-11T09:39:40Z</time>
      </trkpt>
      <trkpt lat="42.98878" lon="-0.21921">
        <ele>1535.61</ele>
        <time>2018-10-11T09:39:43Z</time>
      </trkpt>
      <trkpt lat="42.98887" lon="-0.21892">
        <ele>1534.55</ele>
        <time>2018-10-11T09:39:46Z</time>
      </trkpt>
      <trkpt lat="42.98894" lon="-0.21857">
        <ele>1532.64</ele>
        <time>2018-10-11T09:39:49Z</time>
      </trkpt>
      <trkpt lat="42.98891" lon="-0.21833">
        <ele>1530.92</ele>
        <time>2018-10-11T09:39:51Z</time>
      </trkpt>
      <trkpt lat="42.98887" lon="-0.21798">
        <ele>1528.92</ele>
        <time>2018-10-11T09:39:54Z</time>
      </trkpt>
      <trkpt lat="42.98885" lon="-0.21774">
        <ele>1526.95</ele>
        <time>2018-10-11T09:39:56Z</time>
      </trkpt>
      <trkpt lat="42.98885" lon="-0.21746">
        <ele>1525.65</ele>
        <time>2018-10-11T09:39:58Z</time>
      </trkpt>
      <trkpt lat="42.98884" lon="-0.21719">
        <ele>1523.92</ele>
        <time>2018-10-11T09:40:00Z</time>
      </trkpt>
      <trkpt lat="42.98875" lon="-0.21694">
        <ele>1523.56</ele>
        <time>2018-10-11T09:40:02Z</time>
      </trkpt>
      <trkpt lat="42.98864" lon="-0.21674">
        <ele>1523.53</ele>
        <time>2018-10-11T09:40:04Z</time>
      </trkpt>
      <trkpt lat="42.98848" lon="-0.21662">
        <ele>1525.34</ele>
        <time>2018-10-11T09:40:06Z</time>
      </trkpt>
      <trkpt lat="42.98828" lon="-0.21664">
        <ele>1525.73</ele>
        <time>2018-10-11T09:40:09Z</time>
      </trkpt>
      <trkpt lat="42.98806" lon="-0.21674">
        <ele>1524.83</ele>
        <time>2018-10-11T09:40:12Z</time>
      </trkpt>
      <trkpt lat="42.98782" lon="-0.21681">
        <ele>1523.62</ele>
        <time>2018-10-11T09:40:15Z</time>
      </trkpt>
      <trkpt lat="42.98754" lon="-0.21679">
        <ele>1521.91</ele>
        <time>2018-10-11T09:40:18Z</time>
      </trkpt>
      <trkpt lat="42.98734" lon="-0.21675">
        <ele>1520.65</ele>
        <time>2018-10-11T09:40:20Z</time>
      </trkpt>
      <trkpt lat="42.98716" lon="-0.21667">
        <ele>1519.83</ele>
        <time>2018-10-11T09:40:22Z</time>
      </trkpt>
      <trkpt lat="42.98693" lon="-0.21652">
        <ele>1519.53</ele>
        <time>2018-10-11T09:40:25Z</time>
      </trkpt>
      <trkpt lat="42.98674" lon="-0.2165">
        <ele>1518.82</ele>
        <time>2018-10-11T09:40:27Z</time>
      </trkpt>
      <trkpt lat="42.98656" lon="-0.21652">
        <ele>1516.94</ele>
        <time>2018-10-11T09:40:29Z</time>
      </trkpt>
      <trkpt lat="42.98638" lon="-0.21661">
        <ele>1515.86</ele>
        <time>2018-10-11T09:40:31Z</time>
      </trkpt>
      <trkpt lat="42.98617" lon="-0.21661">
        <ele>1513.83</ele>
        <time>2018-10-11T09:40:35Z</time>
      </trkpt>
      <trkpt lat="42.98633" lon="-0.21643">
        <ele>1513.52</ele>
        <time>2018-10-11T09:40:44Z</time>
      </trkpt>
      <trkpt lat="42.98651" lon="-0.21638">
        <ele>1513.31</ele>
        <time>2018-10-11T09:40:49Z</time>
      </trkpt>
      <trkpt lat="42.98671" lon="-0.21633">
        <ele>1511.64</ele>
        <time>2018-10-11T09:40:54Z</time>
      </trkpt>
      <trkpt lat="42.9869" lon="-0.21632">
        <ele>1511.52</ele>
        <time>2018-10-11T09:40:59Z</time>
      </trkpt>
      <trkpt lat="42.98712" lon="-0.21638">
        <ele>1510.53</ele>
        <time>2018-10-11T09:41:04Z</time>
      </trkpt>
      <trkpt lat="42.98735" lon="-0.21644">
        <ele>1510.52</ele>
        <time>2018-10-11T09:41:08Z</time>
      </trkpt>
      <trkpt lat="42.98758" lon="-0.21643">
        <ele>1507.92</ele>
        <time>2018-10-11T09:41:12Z</time>
      </trkpt>
      <trkpt lat="42.98777" lon="-0.21637">
        <ele>1507.53</ele>
        <time>2018-10-11T09:41:15Z</time>
      </trkpt>
      <trkpt lat="42.98796" lon="-0.21629">
        <ele>1506.55</ele>
        <time>2018-10-11T09:41:18Z</time>
      </trkpt>
      <trkpt lat="42.98812" lon="-0.21616">
        <ele>1507.22</ele>
        <time>2018-10-11T09:41:21Z</time>
      </trkpt>
      <trkpt lat="42.98831" lon="-0.21599">
        <ele>1506.54</ele>
        <time>2018-10-11T09:41:24Z</time>
      </trkpt>
      <trkpt lat="42.9885" lon="-0.21581">
        <ele>1507.43</ele>
        <time>2018-10-11T09:41:27Z</time>
      </trkpt>
      <trkpt lat="42.98872" lon="-0.21562">
        <ele>1505.85</ele>
        <time>2018-10-11T09:41:30Z</time>
      </trkpt>
      <trkpt lat="42.98883" lon="-0.2153">
        <ele>1502.67</ele>
        <time>2018-10-11T09:41:33Z</time>
      </trkpt>
      <trkpt lat="42.98889" lon="-0.21507">
        <ele>1501.84</ele>
        <time>2018-10-11T09:41:35Z</time>
      </trkpt>
      <trkpt lat="42.98898" lon="-0.21484">
        <ele>1499.94</ele>
        <time>2018-10-11T09:41:37Z</time>
      </trkpt>
      <trkpt lat="42.98908" lon="-0.21463">
        <ele>1498.86</ele>
        <time>2018-10-11T09:41:39Z</time>
      </trkpt>
      <trkpt lat="42.9892" lon="-0.21432">
        <ele>1497.62</ele>
        <time>2018-10-11T09:41:42Z</time>
      </trkpt>
      <trkpt lat="42.98929" lon="-0.214">
        <ele>1493.97</ele>
        <time>2018-10-11T09:41:45Z</time>
      </trkpt>
      <trkpt lat="42.98946" lon="-0.21379">
        <ele>1490.95</ele>
        <time>2018-10-11T09:41:48Z</time>
      </trkpt>
      <trkpt lat="42.9897" lon="-0.21373">
        <ele>1488.86</ele>
        <time>2018-10-11T09:41:51Z</time>
      </trkpt>
      <trkpt lat="42.98991" lon="-0.21357">
        <ele>1485.74</ele>
        <time>2018-10-11T09:41:54Z</time>
      </trkpt>
      <trkpt lat="42.99002" lon="-0.21333">
        <ele>1482.94</ele>
        <time>2018-10-11T09:41:57Z</time>
      </trkpt>
      <trkpt lat="42.99007" lon="-0.21307">
        <ele>1478.65</ele>
        <time>2018-10-11T09:42:02Z</time>
      </trkpt>
      <trkpt lat="42.99015" lon="-0.21282">
        <ele>1476.61</ele>
        <time>2018-10-11T09:42:09Z</time>
      </trkpt>
      <trkpt lat="42.99023" lon="-0.21253">
        <ele>1475.82</ele>
        <time>2018-10-11T09:42:16Z</time>
      </trkpt>
      <trkpt lat="42.99035" lon="-0.21234">
        <ele>1473.64</ele>
        <time>2018-10-11T09:42:20Z</time>
      </trkpt>
      <trkpt lat="42.99049" lon="-0.2121">
        <ele>1473.52</ele>
        <time>2018-10-11T09:42:26Z</time>
      </trkpt>
      <trkpt lat="42.99065" lon="-0.21185">
        <ele>1472.82</ele>
        <time>2018-10-11T09:42:30Z</time>
      </trkpt>
      <trkpt lat="42.99082" lon="-0.2116">
        <ele>1470.92</ele>
        <time>2018-10-11T09:42:33Z</time>
      </trkpt>
      <trkpt lat="42.9909" lon="-0.21138">
        <ele>1469.65</ele>
        <time>2018-10-11T09:42:35Z</time>
      </trkpt>
      <trkpt lat="42.99098" lon="-0.21112">
        <ele>1468.82</ele>
        <time>2018-10-11T09:42:39Z</time>
      </trkpt>
      <trkpt lat="42.991" lon="-0.21087">
        <ele>1459.52</ele>
        <time>2018-10-11T09:45:33Z</time>
      </trkpt>
      <trkpt lat="42.99103" lon="-0.21061">
        <ele>1458.53</ele>
        <time>2018-10-11T09:45:37Z</time>
      </trkpt>
      <trkpt lat="42.99109" lon="-0.21029">
        <ele>1456.62</ele>
        <time>2018-10-11T09:45:41Z</time>
      </trkpt>
      <trkpt lat="42.9911" lon="-0.20998">
        <ele>1454.83</ele>
        <time>2018-10-11T09:45:45Z</time>
      </trkpt>
      <trkpt lat="42.99097" lon="-0.20973">
        <ele>1453.55</ele>
        <time>2018-10-11T09:45:49Z</time>
      </trkpt>
      <trkpt lat="42.99081" lon="-0.2095">
        <ele>1451.62</ele>
        <time>2018-10-11T09:45:53Z</time>
      </trkpt>
      <trkpt lat="42.99065" lon="-0.20929">
        <ele>1449.85</ele>
        <time>2018-10-11T09:45:56Z</time>
      </trkpt>
      <trkpt lat="42.99052" lon="-0.20904">
        <ele>1445.34</ele>
        <time>2018-10-11T09:45:59Z</time>
      </trkpt>
      <trkpt lat="42.99043" lon="-0.20881">
        <ele>1443.69</ele>
        <time>2018-10-11T09:46:01Z</time>
      </trkpt>
      <trkpt lat="42.99033" lon="-0.20858">
        <ele>1441.93</ele>
        <time>2018-10-11T09:46:03Z</time>
      </trkpt>
      <trkpt lat="42.99026" lon="-0.20835">
        <ele>1440.16</ele>
        <time>2018-10-11T09:46:05Z</time>
      </trkpt>
      <trkpt lat="42.9902" lon="-0.20804">
        <ele>1436.26</ele>
        <time>2018-10-11T09:46:08Z</time>
      </trkpt>
      <trkpt lat="42.99024" lon="-0.20771">
        <ele>1432.05</ele>
        <time>2018-10-11T09:46:11Z</time>
      </trkpt>
      <trkpt lat="42.99024" lon="-0.20745">
        <ele>1429.96</ele>
        <time>2018-10-11T09:46:13Z</time>
      </trkpt>
      <trkpt lat="42.99024" lon="-0.20719">
        <ele>1428.65</ele>
        <time>2018-10-11T09:46:15Z</time>
      </trkpt>
      <trkpt lat="42.99023" lon="-0.20685">
        <ele>1425.24</ele>
        <time>2018-10-11T09:46:18Z</time>
      </trkpt>
      <trkpt lat="42.99026" lon="-0.20657">
        <ele>1421.96</ele>
        <time>2018-10-11T09:46:21Z</time>
      </trkpt>
      <trkpt lat="42.99045" lon="-0.20649">
        <ele>1419.65</ele>
        <time>2018-10-11T09:46:24Z</time>
      </trkpt>
      <trkpt lat="42.99065" lon="-0.20646">
        <ele>1417.85</ele>
        <time>2018-10-11T09:46:27Z</time>
      </trkpt>
      <trkpt lat="42.99077" lon="-0.20627">
        <ele>1416.62</ele>
        <time>2018-10-11T09:46:30Z</time>
      </trkpt>
      <trkpt lat="42.99085" lon="-0.206">
        <ele>1414.64</ele>
        <time>2018-10-11T09:46:33Z</time>
      </trkpt>
      <trkpt lat="42.99082" lon="-0.20569">
        <ele>1412.92</ele>
        <time>2018-10-11T09:46:36Z</time>
      </trkpt>
      <trkpt lat="42.99084" lon="-0.20532">
        <ele>1410.92</ele>
        <time>2018-10-11T09:46:39Z</time>
      </trkpt>
      <trkpt lat="42.99083" lon="-0.20496">
        <ele>1407.95</ele>
        <time>2018-10-11T09:46:42Z</time>
      </trkpt>
      <trkpt lat="42.99083" lon="-0.20471">
        <ele>1405.04</ele>
        <time>2018-10-11T09:46:44Z</time>
      </trkpt>
      <trkpt lat="42.99091" lon="-0.20442">
        <ele>1400.34</ele>
        <time>2018-10-11T09:46:47Z</time>
      </trkpt>
      <trkpt lat="42.991" lon="-0.20411">
        <ele>1398.63</ele>
        <time>2018-10-11T09:46:50Z</time>
      </trkpt>
      <trkpt lat="42.99103" lon="-0.20385">
        <ele>1396.01</ele>
        <time>2018-10-11T09:46:52Z</time>
      </trkpt>
      <trkpt lat="42.99111" lon="-0.20354">
        <ele>1391.34</ele>
        <time>2018-10-11T09:46:55Z</time>
      </trkpt>
      <trkpt lat="42.99124" lon="-0.20338">
        <ele>1387.26</ele>
        <time>2018-10-11T09:46:58Z</time>
      </trkpt>
      <trkpt lat="42.99125" lon="-0.20311">
        <ele>1373.86</ele>
        <time>2018-10-11T09:47:53Z</time>
      </trkpt>
      <trkpt lat="42.99143" lon="-0.20313">
        <ele>1373.23</ele>
        <time>2018-10-11T09:48:04Z</time>
      </trkpt>
      <trkpt lat="42.99163" lon="-0.20325">
        <ele>1372.61</ele>
        <time>2018-10-11T09:48:19Z</time>
      </trkpt>
      <trkpt lat="42.99182" lon="-0.20339">
        <ele>1373.22</ele>
        <time>2018-10-11T09:48:24Z</time>
      </trkpt>
      <trkpt lat="42.99199" lon="-0.20346">
        <ele>1373.52</ele>
        <time>2018-10-11T09:48:28Z</time>
      </trkpt>
      <trkpt lat="42.99218" lon="-0.20353">
        <ele>1373.52</ele>
        <time>2018-10-11T09:48:32Z</time>
      </trkpt>
      <trkpt lat="42.99238" lon="-0.20362">
        <ele>1371.91</ele>
        <time>2018-10-11T09:48:36Z</time>
      </trkpt>
      <trkpt lat="42.99254" lon="-0.20384">
        <ele>1371.53</ele>
        <time>2018-10-11T09:48:40Z</time>
      </trkpt>
      <trkpt lat="42.99264" lon="-0.20405">
        <ele>1371.52</ele>
        <time>2018-10-11T09:48:43Z</time>
      </trkpt>
      <trkpt lat="42.99279" lon="-0.2042">
        <ele>1371.52</ele>
        <time>2018-10-11T09:48:46Z</time>
      </trkpt>
      <trkpt lat="42.99302" lon="-0.20421">
        <ele>1371.5</ele>
        <time>2018-10-11T09:48:50Z</time>
      </trkpt>
      <trkpt lat="42.99324" lon="-0.20411">
        <ele>1371.52</ele>
        <time>2018-10-11T09:48:54Z</time>
      </trkpt>
      <trkpt lat="42.99341" lon="-0.20402">
        <ele>1370.55</ele>
        <time>2018-10-11T09:48:57Z</time>
      </trkpt>
      <trkpt lat="42.9936" lon="-0.20393">
        <ele>1370.52</ele>
        <time>2018-10-11T09:49:00Z</time>
      </trkpt>
      <trkpt lat="42.99379" lon="-0.20399">
        <ele>1368.85</ele>
        <time>2018-10-11T09:49:03Z</time>
      </trkpt>
      <trkpt lat="42.99393" lon="-0.20424">
        <ele>1366.85</ele>
        <time>2018-10-11T09:49:07Z</time>
      </trkpt>
      <trkpt lat="42.99405" lon="-0.20445">
        <ele>1363.92</ele>
        <time>2018-10-11T09:49:11Z</time>
      </trkpt>
      <trkpt lat="42.99418" lon="-0.2047">
        <ele>1363.53</ele>
        <time>2018-10-11T09:49:15Z</time>
      </trkpt>
      <trkpt lat="42.99435" lon="-0.2049">
        <ele>1364.43</ele>
        <time>2018-10-11T09:49:19Z</time>
      </trkpt>
      <trkpt lat="42.99454" lon="-0.20505">
        <ele>1366.49</ele>
        <time>2018-10-11T09:49:23Z</time>
      </trkpt>
      <trkpt lat="42.99474" lon="-0.20512">
        <ele>1366.52</ele>
        <time>2018-10-11T09:49:27Z</time>
      </trkpt>
      <trkpt lat="42.99495" lon="-0.20515">
        <ele>1366.6</ele>
        <time>2018-10-11T09:49:31Z</time>
      </trkpt>
      <trkpt lat="42.99507" lon="-0.20488">
        <ele>1364.85</ele>
        <time>2018-10-11T09:49:35Z</time>
      </trkpt>
      <trkpt lat="42.99512" lon="-0.2046">
        <ele>1364.52</ele>
        <time>2018-10-11T09:49:39Z</time>
      </trkpt>
      <trkpt lat="42.99529" lon="-0.2044">
        <ele>1364.6</ele>
        <time>2018-10-11T09:49:43Z</time>
      </trkpt>
      <trkpt lat="42.99548" lon="-0.20432">
        <ele>1365.43</ele>
        <time>2018-10-11T09:49:47Z</time>
      </trkpt>
      <trkpt lat="42.99557" lon="-0.20407">
        <ele>1365.52</ele>
        <time>2018-10-11T09:49:51Z</time>
      </trkpt>
      <trkpt lat="42.99568" lon="-0.20383">
        <ele>1364.61</ele>
        <time>2018-10-11T09:49:55Z</time>
      </trkpt>
      <trkpt lat="42.99586" lon="-0.20373">
        <ele>1364.59</ele>
        <time>2018-10-11T09:49:59Z</time>
      </trkpt>
      <trkpt lat="42.99605" lon="-0.2036">
        <ele>1365.43</ele>
        <time>2018-10-11T09:50:03Z</time>
      </trkpt>
      <trkpt lat="42.99625" lon="-0.20348">
        <ele>1365.5</ele>
        <time>2018-10-11T09:50:07Z</time>
      </trkpt>
      <trkpt lat="42.99646" lon="-0.20342">
        <ele>1365.44</ele>
        <time>2018-10-11T09:50:11Z</time>
      </trkpt>
      <trkpt lat="42.99665" lon="-0.20341">
        <ele>1364.61</ele>
        <time>2018-10-11T09:50:14Z</time>
      </trkpt>
      <trkpt lat="42.99686" lon="-0.20349">
        <ele>1363.55</ele>
        <time>2018-10-11T09:50:18Z</time>
      </trkpt>
      <trkpt lat="42.99706" lon="-0.20358">
        <ele>1362.61</ele>
        <time>2018-10-11T09:50:22Z</time>
      </trkpt>
      <trkpt lat="42.99725" lon="-0.20351">
        <ele>1362.52</ele>
        <time>2018-10-11T09:50:26Z</time>
      </trkpt>
      <trkpt lat="42.99745" lon="-0.20352">
        <ele>1362.52</ele>
        <time>2018-10-11T09:50:31Z</time>
      </trkpt>
      <trkpt lat="42.99764" lon="-0.2036">
        <ele>1363.51</ele>
        <time>2018-10-11T09:50:36Z</time>
      </trkpt>
      <trkpt lat="42.99782" lon="-0.20373">
        <ele>1363.52</ele>
        <time>2018-10-11T09:50:40Z</time>
      </trkpt>
      <trkpt lat="42.998" lon="-0.20379">
        <ele>1363.52</ele>
        <time>2018-10-11T09:50:44Z</time>
      </trkpt>
      <trkpt lat="42.99818" lon="-0.20374">
        <ele>1363.52</ele>
        <time>2018-10-11T09:50:48Z</time>
      </trkpt>
      <trkpt lat="42.99838" lon="-0.2036">
        <ele>1363.52</ele>
        <time>2018-10-11T09:50:52Z</time>
      </trkpt>
      <trkpt lat="42.99859" lon="-0.20351">
        <ele>1363.52</ele>
        <time>2018-10-11T09:50:56Z</time>
      </trkpt>
      <trkpt lat="42.99875" lon="-0.20338">
        <ele>1361.91</ele>
        <time>2018-10-11T09:51:00Z</time>
      </trkpt>
      <trkpt lat="42.99889" lon="-0.20322">
        <ele>1362.51</ele>
        <time>2018-10-11T09:51:03Z</time>
      </trkpt>
      <trkpt lat="42.99907" lon="-0.2031">
        <ele>1360.91</ele>
        <time>2018-10-11T09:51:06Z</time>
      </trkpt>
      <trkpt lat="42.99928" lon="-0.20311">
        <ele>1360.53</ele>
        <time>2018-10-11T09:51:09Z</time>
      </trkpt>
      <trkpt lat="42.99948" lon="-0.20316">
        <ele>1359.55</ele>
        <time>2018-10-11T09:51:12Z</time>
      </trkpt>
      <trkpt lat="42.99972" lon="-0.20314">
        <ele>1356.16</ele>
        <time>2018-10-11T09:51:16Z</time>
      </trkpt>
      <trkpt lat="42.99987" lon="-0.20329">
        <ele>1353.17</ele>
        <time>2018-10-11T09:51:19Z</time>
      </trkpt>
      <trkpt lat="42.99994" lon="-0.20358">
        <ele>1350.85</ele>
        <time>2018-10-11T09:51:23Z</time>
      </trkpt>
      <trkpt lat="42.99997" lon="-0.20385">
        <ele>1350.53</ele>
        <time>2018-10-11T09:51:26Z</time>
      </trkpt>
      <trkpt lat="43.00002" lon="-0.20416">
        <ele>1350.52</ele>
        <time>2018-10-11T09:51:30Z</time>
      </trkpt>
      <trkpt lat="43.00008" lon="-0.20446">
        <ele>1350.52</ele>
        <time>2018-10-11T09:51:34Z</time>
      </trkpt>
      <trkpt lat="43.00012" lon="-0.20475">
        <ele>1348.83</ele>
        <time>2018-10-11T09:51:38Z</time>
      </trkpt>
      <trkpt lat="43.00013" lon="-0.20503">
        <ele>1349.22</ele>
        <time>2018-10-11T09:51:42Z</time>
      </trkpt>
      <trkpt lat="43.0001" lon="-0.20533">
        <ele>1349.46</ele>
        <time>2018-10-11T09:51:47Z</time>
      </trkpt>
      <trkpt lat="43.00004" lon="-0.20563">
        <ele>1348.52</ele>
        <time>2018-10-11T09:51:52Z</time>
      </trkpt>
      <trkpt lat="42.99998" lon="-0.20587">
        <ele>1348.82</ele>
        <time>2018-10-11T09:52:01Z</time>
      </trkpt>
      <trkpt lat="42.99989" lon="-0.20613">
        <ele>1344.52</ele>
        <time>2018-10-11T09:59:39Z</time>
      </trkpt>
      <trkpt lat="42.9998" lon="-0.2064">
        <ele>1343.61</ele>
        <time>2018-10-11T09:59:44Z</time>
      </trkpt>
      <trkpt lat="42.99975" lon="-0.20667">
        <ele>1342.53</ele>
        <time>2018-10-11T09:59:49Z</time>
      </trkpt>
      <trkpt lat="42.99971" lon="-0.20693">
        <ele>1343.5</ele>
        <time>2018-10-11T09:59:53Z</time>
      </trkpt>
      <trkpt lat="42.9997" lon="-0.2072">
        <ele>1343.31</ele>
        <time>2018-10-11T09:59:57Z</time>
      </trkpt>
      <trkpt lat="42.99975" lon="-0.20745">
        <ele>1343.52</ele>
        <time>2018-10-11T10:00:01Z</time>
      </trkpt>
      <trkpt lat="42.99978" lon="-0.20772">
        <ele>1344.43</ele>
        <time>2018-10-11T10:00:05Z</time>
      </trkpt>
      <trkpt lat="42.99983" lon="-0.20799">
        <ele>1344.44</ele>
        <time>2018-10-11T10:00:09Z</time>
      </trkpt>
      <trkpt lat="42.99992" lon="-0.20826">
        <ele>1342.91</ele>
        <time>2018-10-11T10:00:13Z</time>
      </trkpt>
      <trkpt lat="43.00005" lon="-0.20848">
        <ele>1341.62</ele>
        <time>2018-10-11T10:00:17Z</time>
      </trkpt>
      <trkpt lat="43.00012" lon="-0.20873">
        <ele>1339.85</ele>
        <time>2018-10-11T10:00:21Z</time>
      </trkpt>
      <trkpt lat="43.00018" lon="-0.20899">
        <ele>1338.61</ele>
        <time>2018-10-11T10:00:25Z</time>
      </trkpt>
      <trkpt lat="43.00026" lon="-0.20924">
        <ele>1336.91</ele>
        <time>2018-10-11T10:00:29Z</time>
      </trkpt>
      <trkpt lat="43.0003" lon="-0.20954">
        <ele>1337.23</ele>
        <time>2018-10-11T10:00:33Z</time>
      </trkpt>
      <trkpt lat="43.00028" lon="-0.20983">
        <ele>1337.81</ele>
        <time>2018-10-11T10:00:37Z</time>
      </trkpt>
      <trkpt lat="43.00021" lon="-0.2101">
        <ele>1337.52</ele>
        <time>2018-10-11T10:00:41Z</time>
      </trkpt>
      <trkpt lat="43.00008" lon="-0.21035">
        <ele>1338.51</ele>
        <time>2018-10-11T10:00:45Z</time>
      </trkpt>
      <trkpt lat="42.99995" lon="-0.21057">
        <ele>1338.58</ele>
        <time>2018-10-11T10:00:49Z</time>
      </trkpt>
      <trkpt lat="42.9998" lon="-0.21077">
        <ele>1339.43</ele>
        <time>2018-10-11T10:00:53Z</time>
      </trkpt>
      <trkpt lat="42.99965" lon="-0.21101">
        <ele>1337.62</ele>
        <time>2018-10-11T10:00:57Z</time>
      </trkpt>
      <trkpt lat="42.99948" lon="-0.21123">
        <ele>1338.51</ele>
        <time>2018-10-11T10:01:01Z</time>
      </trkpt>
      <trkpt lat="42.99928" lon="-0.21134">
        <ele>1339.49</ele>
        <time>2018-10-11T10:01:05Z</time>
      </trkpt>
      <trkpt lat="42.99911" lon="-0.21151">
        <ele>1339.25</ele>
        <time>2018-10-11T10:01:09Z</time>
      </trkpt>
      <trkpt lat="42.99897" lon="-0.21168">
        <ele>1340.49</ele>
        <time>2018-10-11T10:01:12Z</time>
      </trkpt>
      <trkpt lat="42.99882" lon="-0.21185">
        <ele>1341.43</ele>
        <time>2018-10-11T10:01:15Z</time>
      </trkpt>
      <trkpt lat="42.99863" lon="-0.21202">
        <ele>1340.82</ele>
        <time>2018-10-11T10:01:19Z</time>
      </trkpt>
      <trkpt lat="42.99846" lon="-0.21217">
        <ele>1340.59</ele>
        <time>2018-10-11T10:01:22Z</time>
      </trkpt>
      <trkpt lat="42.99835" lon="-0.21236">
        <ele>1341.5</ele>
        <time>2018-10-11T10:01:25Z</time>
      </trkpt>
      <trkpt lat="42.99826" lon="-0.21264">
        <ele>1341.52</ele>
        <time>2018-10-11T10:01:29Z</time>
      </trkpt>
      <trkpt lat="42.99829" lon="-0.21295">
        <ele>1340.59</ele>
        <time>2018-10-11T10:01:34Z</time>
      </trkpt>
      <trkpt lat="42.9982" lon="-0.21326">
        <ele>1338.64</ele>
        <time>2018-10-11T10:01:38Z</time>
      </trkpt>
      <trkpt lat="42.99808" lon="-0.21347">
        <ele>1336.85</ele>
        <time>2018-10-11T10:01:41Z</time>
      </trkpt>
      <trkpt lat="42.99793" lon="-0.21364">
        <ele>1335.62</ele>
        <time>2018-10-11T10:01:44Z</time>
      </trkpt>
      <trkpt lat="42.99777" lon="-0.21374">
        <ele>1334.55</ele>
        <time>2018-10-11T10:01:47Z</time>
      </trkpt>
      <trkpt lat="42.99756" lon="-0.21384">
        <ele>1332.85</ele>
        <time>2018-10-11T10:01:51Z</time>
      </trkpt>
      <trkpt lat="42.99734" lon="-0.21394">
        <ele>1330.64</ele>
        <time>2018-10-11T10:01:55Z</time>
      </trkpt>
      <trkpt lat="42.99716" lon="-0.214">
        <ele>1328.85</ele>
        <time>2018-10-11T10:01:58Z</time>
      </trkpt>
      <trkpt lat="42.99698" lon="-0.21404">
        <ele>1328.53</ele>
        <time>2018-10-11T10:02:01Z</time>
      </trkpt>
      <trkpt lat="42.99675" lon="-0.21407">
        <ele>1327.53</ele>
        <time>2018-10-11T10:02:05Z</time>
      </trkpt>
      <trkpt lat="42.99657" lon="-0.21408">
        <ele>1326.61</ele>
        <time>2018-10-11T10:02:08Z</time>
      </trkpt>
      <trkpt lat="42.99638" lon="-0.21411">
        <ele>1325.55</ele>
        <time>2018-10-11T10:02:11Z</time>
      </trkpt>
      <trkpt lat="42.99615" lon="-0.21414">
        <ele>1325.52</ele>
        <time>2018-10-11T10:02:15Z</time>
      </trkpt>
      <trkpt lat="42.99593" lon="-0.21419">
        <ele>1325.52</ele>
        <time>2018-10-11T10:02:19Z</time>
      </trkpt>
      <trkpt lat="42.99571" lon="-0.21422">
        <ele>1325.52</ele>
        <time>2018-10-11T10:02:23Z</time>
      </trkpt>
      <trkpt lat="42.99552" lon="-0.21425">
        <ele>1325.52</ele>
        <time>2018-10-11T10:02:26Z</time>
      </trkpt>
      <trkpt lat="42.99531" lon="-0.21429">
        <ele>1323.64</ele>
        <time>2018-10-11T10:02:29Z</time>
      </trkpt>
      <trkpt lat="42.99508" lon="-0.21432">
        <ele>1322.76</ele>
        <time>2018-10-11T10:02:32Z</time>
      </trkpt>
      <trkpt lat="42.99485" lon="-0.21433">
        <ele>1321.62</ele>
        <time>2018-10-11T10:02:35Z</time>
      </trkpt>
      <trkpt lat="42.99464" lon="-0.21445">
        <ele>1319.91</ele>
        <time>2018-10-11T10:02:38Z</time>
      </trkpt>
      <trkpt lat="42.99442" lon="-0.21451">
        <ele>1317.92</ele>
        <time>2018-10-11T10:02:41Z</time>
      </trkpt>
      <trkpt lat="42.99425" lon="-0.21469">
        <ele>1316.83</ele>
        <time>2018-10-11T10:02:45Z</time>
      </trkpt>
      <trkpt lat="42.99433" lon="-0.21496">
        <ele>1312.93</ele>
        <time>2018-10-11T10:02:49Z</time>
      </trkpt>
      <trkpt lat="42.99446" lon="-0.2152">
        <ele>1309.65</ele>
        <time>2018-10-11T10:02:54Z</time>
      </trkpt>
      <trkpt lat="42.99461" lon="-0.21533">
        <ele>1310.51</ele>
        <time>2018-10-11T10:02:58Z</time>
      </trkpt>
      <trkpt lat="42.99484" lon="-0.2154">
        <ele>1311.43</ele>
        <time>2018-10-11T10:03:02Z</time>
      </trkpt>
      <trkpt lat="42.99506" lon="-0.21543">
        <ele>1311.52</ele>
        <time>2018-10-11T10:03:06Z</time>
      </trkpt>
      <trkpt lat="42.99524" lon="-0.21547">
        <ele>1310.55</ele>
        <time>2018-10-11T10:03:09Z</time>
      </trkpt>
      <trkpt lat="42.99546" lon="-0.2155">
        <ele>1309.61</ele>
        <time>2018-10-11T10:03:12Z</time>
      </trkpt>
      <trkpt lat="42.99568" lon="-0.21554">
        <ele>1308.55</ele>
        <time>2018-10-11T10:03:15Z</time>
      </trkpt>
      <trkpt lat="42.99592" lon="-0.21558">
        <ele>1307.55</ele>
        <time>2018-10-11T10:03:18Z</time>
      </trkpt>
      <trkpt lat="42.99616" lon="-0.21565">
        <ele>1304.94</ele>
        <time>2018-10-11T10:03:21Z</time>
      </trkpt>
      <trkpt lat="42.99633" lon="-0.21576">
        <ele>1302.04</ele>
        <time>2018-10-11T10:03:23Z</time>
      </trkpt>
      <trkpt lat="42.99648" lon="-0.21592">
        <ele>1299.96</ele>
        <time>2018-10-11T10:03:25Z</time>
      </trkpt>
      <trkpt lat="42.99662" lon="-0.21607">
        <ele>1298.65</ele>
        <time>2018-10-11T10:03:27Z</time>
      </trkpt>
      <trkpt lat="42.99676" lon="-0.2163">
        <ele>1298.25</ele>
        <time>2018-10-11T10:03:30Z</time>
      </trkpt>
      <trkpt lat="42.99675" lon="-0.21661">
        <ele>1299.49</ele>
        <time>2018-10-11T10:03:34Z</time>
      </trkpt>
      <trkpt lat="42.99667" lon="-0.21685">
        <ele>1297.64</ele>
        <time>2018-10-11T10:03:37Z</time>
      </trkpt>
      <trkpt lat="42.99675" lon="-0.21707">
        <ele>1296.55</ele>
        <time>2018-10-11T10:03:40Z</time>
      </trkpt>
      <trkpt lat="42.99697" lon="-0.21715">
        <ele>1296.44</ele>
        <time>2018-10-11T10:03:44Z</time>
      </trkpt>
      <trkpt lat="42.9972" lon="-0.21714">
        <ele>1296.52</ele>
        <time>2018-10-11T10:03:48Z</time>
      </trkpt>
      <trkpt lat="42.99739" lon="-0.21706">
        <ele>1295.82</ele>
        <time>2018-10-11T10:03:51Z</time>
      </trkpt>
      <trkpt lat="42.99758" lon="-0.217">
        <ele>1294.83</ele>
        <time>2018-10-11T10:03:54Z</time>
      </trkpt>
      <trkpt lat="42.99781" lon="-0.21689">
        <ele>1293.62</ele>
        <time>2018-10-11T10:03:57Z</time>
      </trkpt>
      <trkpt lat="42.99805" lon="-0.21675">
        <ele>1291.64</ele>
        <time>2018-10-11T10:04:00Z</time>
      </trkpt>
      <trkpt lat="42.99826" lon="-0.21663">
        <ele>1290.62</ele>
        <time>2018-10-11T10:04:03Z</time>
      </trkpt>
      <trkpt lat="42.99845" lon="-0.21654">
        <ele>1288.91</ele>
        <time>2018-10-11T10:04:06Z</time>
      </trkpt>
      <trkpt lat="42.99867" lon="-0.21662">
        <ele>1284.89</ele>
        <time>2018-10-11T10:04:10Z</time>
      </trkpt>
      <trkpt lat="42.99881" lon="-0.21683">
        <ele>1281.25</ele>
        <time>2018-10-11T10:04:13Z</time>
      </trkpt>
      <trkpt lat="42.9989" lon="-0.21711">
        <ele>1276.99</ele>
        <time>2018-10-11T10:04:16Z</time>
      </trkpt>
      <trkpt lat="42.999" lon="-0.21744">
        <ele>1273.95</ele>
        <time>2018-10-11T10:04:19Z</time>
      </trkpt>
      <trkpt lat="42.99913" lon="-0.21768">
        <ele>1271.65</ele>
        <time>2018-10-11T10:04:22Z</time>
      </trkpt>
      <trkpt lat="42.99936" lon="-0.21782">
        <ele>1267.27</ele>
        <time>2018-10-11T10:04:25Z</time>
      </trkpt>
      <trkpt lat="42.99955" lon="-0.21796">
        <ele>1264.66</ele>
        <time>2018-10-11T10:04:28Z</time>
      </trkpt>
      <trkpt lat="42.99976" lon="-0.2179">
        <ele>1262.85</ele>
        <time>2018-10-11T10:04:31Z</time>
      </trkpt>
      <trkpt lat="42.9999" lon="-0.21765">
        <ele>1260.01</ele>
        <time>2018-10-11T10:04:34Z</time>
      </trkpt>
      <trkpt lat="42.99998" lon="-0.21732">
        <ele>1256.04</ele>
        <time>2018-10-11T10:04:37Z</time>
      </trkpt>
      <trkpt lat="43.00009" lon="-0.21704">
        <ele>1251.07</ele>
        <time>2018-10-11T10:04:40Z</time>
      </trkpt>
      <trkpt lat="43.00027" lon="-0.21677">
        <ele>1247.04</ele>
        <time>2018-10-11T10:04:43Z</time>
      </trkpt>
      <trkpt lat="43.00046" lon="-0.21652">
        <ele>1243.95</ele>
        <time>2018-10-11T10:04:46Z</time>
      </trkpt>
      <trkpt lat="43.00068" lon="-0.21634">
        <ele>1241.65</ele>
        <time>2018-10-11T10:04:49Z</time>
      </trkpt>
      <trkpt lat="43.00087" lon="-0.21628">
        <ele>1239.85</ele>
        <time>2018-10-11T10:04:52Z</time>
      </trkpt>
      <trkpt lat="43.00105" lon="-0.21623">
        <ele>1236.95</ele>
        <time>2018-10-11T10:04:55Z</time>
      </trkpt>
      <trkpt lat="43.00122" lon="-0.21614">
        <ele>1234.86</ele>
        <time>2018-10-11T10:04:58Z</time>
      </trkpt>
      <trkpt lat="43.00139" lon="-0.21597">
        <ele>1230.98</ele>
        <time>2018-10-11T10:05:01Z</time>
      </trkpt>
      <trkpt lat="43.00154" lon="-0.21574">
        <ele>1226.98</ele>
        <time>2018-10-11T10:05:04Z</time>
      </trkpt>
      <trkpt lat="43.00163" lon="-0.21551">
        <ele>1224.95</ele>
        <time>2018-10-11T10:05:06Z</time>
      </trkpt>
      <trkpt lat="43.00173" lon="-0.21525">
        <ele>1222.95</ele>
        <time>2018-10-11T10:05:08Z</time>
      </trkpt>
      <trkpt lat="43.00186" lon="-0.21499">
        <ele>1220.95</ele>
        <time>2018-10-11T10:05:10Z</time>
      </trkpt>
      <trkpt lat="43.00198" lon="-0.21475">
        <ele>1218.04</ele>
        <time>2018-10-11T10:05:12Z</time>
      </trkpt>
      <trkpt lat="43.00211" lon="-0.21453">
        <ele>1215.05</ele>
        <time>2018-10-11T10:05:14Z</time>
      </trkpt>
      <trkpt lat="43.00225" lon="-0.21433">
        <ele>1212.96</ele>
        <time>2018-10-11T10:05:16Z</time>
      </trkpt>
      <trkpt lat="43.00241" lon="-0.21414">
        <ele>1209.13</ele>
        <time>2018-10-11T10:05:18Z</time>
      </trkpt>
      <trkpt lat="43.00257" lon="-0.21397">
        <ele>1207.67</ele>
        <time>2018-10-11T10:05:20Z</time>
      </trkpt>
      <trkpt lat="43.00279" lon="-0.21381">
        <ele>1206.55</ele>
        <time>2018-10-11T10:05:23Z</time>
      </trkpt>
      <trkpt lat="43.00299" lon="-0.21368">
        <ele>1207.51</ele>
        <time>2018-10-11T10:05:27Z</time>
      </trkpt>
      <trkpt lat="43.00316" lon="-0.21358">
        <ele>1207.52</ele>
        <time>2018-10-11T10:05:33Z</time>
      </trkpt>
      <trkpt lat="43.00335" lon="-0.21357">
        <ele>1206.61</ele>
        <time>2018-10-11T10:05:40Z</time>
      </trkpt>
      <trkpt lat="43.00352" lon="-0.21347">
        <ele>1207.52</ele>
        <time>2018-10-11T10:05:48Z</time>
      </trkpt>
      <trkpt lat="43.00368" lon="-0.21335">
        <ele>1207.52</ele>
        <time>2018-10-11T10:05:57Z</time>
      </trkpt>
      <trkpt lat="43.00383" lon="-0.2132">
        <ele>1208.73</ele>
        <time>2018-10-11T10:06:07Z</time>
      </trkpt>
      <trkpt lat="43.00398" lon="-0.21305">
        <ele>1211.49</ele>
        <time>2018-10-11T10:06:19Z</time>
      </trkpt>
      <trkpt lat="43.00416" lon="-0.21291">
        <ele>1211.52</ele>
        <time>2018-10-11T10:06:29Z</time>
      </trkpt>
      <trkpt lat="43.00434" lon="-0.21282">
        <ele>1216.18</ele>
        <time>2018-10-11T10:06:40Z</time>
      </trkpt>
      <trkpt lat="43.00452" lon="-0.2127">
        <ele>1220.43</ele>
        <time>2018-10-11T10:06:50Z</time>
      </trkpt>
      <trkpt lat="43.00467" lon="-0.21253">
        <ele>1223.43</ele>
        <time>2018-10-11T10:07:00Z</time>
      </trkpt>
      <trkpt lat="43.00482" lon="-0.21235">
        <ele>1225.5</ele>
        <time>2018-10-11T10:07:09Z</time>
      </trkpt>
      <trkpt lat="43.00498" lon="-0.21222">
        <ele>1226.79</ele>
        <time>2018-10-11T10:07:19Z</time>
      </trkpt>
      <trkpt lat="43.00515" lon="-0.21212">
        <ele>1229.5</ele>
        <time>2018-10-11T10:07:31Z</time>
      </trkpt>
      <trkpt lat="43.0053" lon="-0.21199">
        <ele>1231.43</ele>
        <time>2018-10-11T10:07:47Z</time>
      </trkpt>
      <trkpt lat="43.00548" lon="-0.21188">
        <ele>1234.52</ele>
        <time>2018-10-11T10:08:01Z</time>
      </trkpt>
      <trkpt lat="43.00564" lon="-0.21174">
        <ele>1237.22</ele>
        <time>2018-10-11T10:08:13Z</time>
      </trkpt>
      <trkpt lat="43.00579" lon="-0.21156">
        <ele>1233.52</ele>
        <time>2018-10-11T10:08:29Z</time>
      </trkpt>
      <trkpt lat="43.00593" lon="-0.2114">
        <ele>1234.51</ele>
        <time>2018-10-11T10:08:41Z</time>
      </trkpt>
      <trkpt lat="43.00607" lon="-0.21123">
        <ele>1238.42</ele>
        <time>2018-10-11T10:08:53Z</time>
      </trkpt>
      <trkpt lat="43.00624" lon="-0.2111">
        <ele>1242.52</ele>
        <time>2018-10-11T10:09:06Z</time>
      </trkpt>
      <trkpt lat="43.00641" lon="-0.21098">
        <ele>1243.82</ele>
        <time>2018-10-11T10:09:19Z</time>
      </trkpt>
      <trkpt lat="43.00656" lon="-0.21083">
        <ele>1244.49</ele>
        <time>2018-10-11T10:09:32Z</time>
      </trkpt>
      <trkpt lat="43.00671" lon="-0.21069">
        <ele>1245.5</ele>
        <time>2018-10-11T10:09:44Z</time>
      </trkpt>
      <trkpt lat="43.00688" lon="-0.21059">
        <ele>1247.51</ele>
        <time>2018-10-11T10:09:55Z</time>
      </trkpt>
      <trkpt lat="43.00707" lon="-0.21056">
        <ele>1250.49</ele>
        <time>2018-10-11T10:10:07Z</time>
      </trkpt>
      <trkpt lat="43.00724" lon="-0.21042">
        <ele>1251.52</ele>
        <time>2018-10-11T10:10:17Z</time>
      </trkpt>
      <trkpt lat="43.00736" lon="-0.21021">
        <ele>1252.49</ele>
        <time>2018-10-11T10:10:27Z</time>
      </trkpt>
      <trkpt lat="43.00749" lon="-0.21002">
        <ele>1254.43</ele>
        <time>2018-10-11T10:10:37Z</time>
      </trkpt>
      <trkpt lat="43.00766" lon="-0.20988">
        <ele>1255.53</ele>
        <time>2018-10-11T10:10:47Z</time>
      </trkpt>
      <trkpt lat="43.00782" lon="-0.20997">
        <ele>1254.52</ele>
        <time>2018-10-11T10:10:57Z</time>
      </trkpt>
      <trkpt lat="43.008" lon="-0.21007">
        <ele>1256.51</ele>
        <time>2018-10-11T10:11:08Z</time>
      </trkpt>
      <trkpt lat="43.00818" lon="-0.21008">
        <ele>1257.52</ele>
        <time>2018-10-11T10:11:18Z</time>
      </trkpt>
      <trkpt lat="43.00837" lon="-0.21012">
        <ele>1259.52</ele>
        <time>2018-10-11T10:11:29Z</time>
      </trkpt>
      <trkpt lat="43.00852" lon="-0.2103">
        <ele>1258.52</ele>
        <time>2018-10-11T10:11:40Z</time>
      </trkpt>
      <trkpt lat="43.00861" lon="-0.21053">
        <ele>1262.51</ele>
        <time>2018-10-11T10:11:52Z</time>
      </trkpt>
      <trkpt lat="43.00866" lon="-0.21078">
        <ele>1265.43</ele>
        <time>2018-10-11T10:12:03Z</time>
      </trkpt>
      <trkpt lat="43.0087" lon="-0.21103">
        <ele>1270.19</ele>
        <time>2018-10-11T10:12:15Z</time>
      </trkpt>
      <trkpt lat="43.00871" lon="-0.21129">
        <ele>1272.21</ele>
        <time>2018-10-11T10:12:26Z</time>
      </trkpt>
      <trkpt lat="43.00873" lon="-0.21154">
        <ele>1276.19</ele>
        <time>2018-10-11T10:12:37Z</time>
      </trkpt>
      <trkpt lat="43.00878" lon="-0.21178">
        <ele>1277.21</ele>
        <time>2018-10-11T10:12:48Z</time>
      </trkpt>
      <trkpt lat="43.00883" lon="-0.21203">
        <ele>1280.41</ele>
        <time>2018-10-11T10:12:59Z</time>
      </trkpt>
      <trkpt lat="43.00891" lon="-0.21225">
        <ele>1281.51</ele>
        <time>2018-10-11T10:13:10Z</time>
      </trkpt>
      <trkpt lat="43.00898" lon="-0.2125">
        <ele>1284.42</ele>
        <time>2018-10-11T10:13:22Z</time>
      </trkpt>
      <trkpt lat="43.00902" lon="-0.21274">
        <ele>1287.51</ele>
        <time>2018-10-11T10:13:35Z</time>
      </trkpt>
      <trkpt lat="43.00904" lon="-0.213">
        <ele>1290.52</ele>
        <time>2018-10-11T10:13:49Z</time>
      </trkpt>
      <trkpt lat="43.00904" lon="-0.21325">
        <ele>1292.22</ele>
        <time>2018-10-11T10:14:04Z</time>
      </trkpt>
      <trkpt lat="43.00906" lon="-0.2135">
        <ele>1295.46</ele>
        <time>2018-10-11T10:14:18Z</time>
      </trkpt>
      <trkpt lat="43.00908" lon="-0.21376">
        <ele>1299.73</ele>
        <time>2018-10-11T10:14:33Z</time>
      </trkpt>
      <trkpt lat="43.00918" lon="-0.21398">
        <ele>1302.22</ele>
        <time>2018-10-11T10:14:47Z</time>
      </trkpt>
      <trkpt lat="43.00918" lon="-0.21425">
        <ele>1303.25</ele>
        <time>2018-10-11T10:15:01Z</time>
      </trkpt>
      <trkpt lat="43.00924" lon="-0.21449">
        <ele>1306.28</ele>
        <time>2018-10-11T10:15:14Z</time>
      </trkpt>
      <trkpt lat="43.00931" lon="-0.21474">
        <ele>1308.79</ele>
        <time>2018-10-11T10:15:25Z</time>
      </trkpt>
      <trkpt lat="43.00949" lon="-0.21476">
        <ele>1309.52</ele>
        <time>2018-10-11T10:15:35Z</time>
      </trkpt>
      <trkpt lat="43.00968" lon="-0.21483">
        <ele>1308.55</ele>
        <time>2018-10-11T10:15:45Z</time>
      </trkpt>
      <trkpt lat="43.00981" lon="-0.21502">
        <ele>1311.2</ele>
        <time>2018-10-11T10:15:55Z</time>
      </trkpt>
      <trkpt lat="43.00995" lon="-0.21521">
        <ele>1314.13</ele>
        <time>2018-10-11T10:16:06Z</time>
      </trkpt>
      <trkpt lat="43.01009" lon="-0.21538">
        <ele>1318.43</ele>
        <time>2018-10-11T10:16:18Z</time>
      </trkpt>
      <trkpt lat="43.01024" lon="-0.21553">
        <ele>1318.55</ele>
        <time>2018-10-11T10:16:29Z</time>
      </trkpt>
      <trkpt lat="43.01036" lon="-0.21571">
        <ele>1318.54</ele>
        <time>2018-10-11T10:16:40Z</time>
      </trkpt>
      <trkpt lat="43.01051" lon="-0.21588">
        <ele>1320.22</ele>
        <time>2018-10-11T10:16:52Z</time>
      </trkpt>
      <trkpt lat="43.01064" lon="-0.21606">
        <ele>1323.12</ele>
        <time>2018-10-11T10:17:03Z</time>
      </trkpt>
      <trkpt lat="43.01079" lon="-0.21622">
        <ele>1323.52</ele>
        <time>2018-10-11T10:17:15Z</time>
      </trkpt>
      <trkpt lat="43.01094" lon="-0.21635">
        <ele>1327.4</ele>
        <time>2018-10-11T10:17:27Z</time>
      </trkpt>
      <trkpt lat="43.01112" lon="-0.21631">
        <ele>1332.22</ele>
        <time>2018-10-11T10:17:40Z</time>
      </trkpt>
      <trkpt lat="43.01131" lon="-0.21628">
        <ele>1333.73</ele>
        <time>2018-10-11T10:17:52Z</time>
      </trkpt>
      <trkpt lat="43.0115" lon="-0.2162">
        <ele>1339.19</ele>
        <time>2018-10-11T10:18:06Z</time>
      </trkpt>
      <trkpt lat="43.01168" lon="-0.21613">
        <ele>1340.52</ele>
        <time>2018-10-11T10:18:17Z</time>
      </trkpt>
      <trkpt lat="43.01165" lon="-0.21638">
        <ele>1338.52</ele>
        <time>2018-10-11T10:18:35Z</time>
      </trkpt>
      <trkpt lat="43.01149" lon="-0.21651">
        <ele>1340.52</ele>
        <time>2018-10-11T10:18:47Z</time>
      </trkpt>
      <trkpt lat="43.01136" lon="-0.21669">
        <ele>1343.22</ele>
        <time>2018-10-11T10:18:58Z</time>
      </trkpt>
      <trkpt lat="43.01123" lon="-0.21688">
        <ele>1344.5</ele>
        <time>2018-10-11T10:19:13Z</time>
      </trkpt>
      <trkpt lat="43.0111" lon="-0.21705">
        <ele>1348.42</ele>
        <time>2018-10-11T10:19:26Z</time>
      </trkpt>
      <trkpt lat="43.01099" lon="-0.21725">
        <ele>1351.52</ele>
        <time>2018-10-11T10:19:40Z</time>
      </trkpt>
      <trkpt lat="43.0108" lon="-0.21733">
        <ele>1354.19</ele>
        <time>2018-10-11T10:19:54Z</time>
      </trkpt>
      <trkpt lat="43.01062" lon="-0.2173">
        <ele>1359.22</ele>
        <time>2018-10-11T10:20:06Z</time>
      </trkpt>
      <trkpt lat="43.01045" lon="-0.21723">
        <ele>1363.19</ele>
        <time>2018-10-11T10:20:18Z</time>
      </trkpt>
      <trkpt lat="43.01027" lon="-0.21718">
        <ele>1365.42</ele>
        <time>2018-10-11T10:20:29Z</time>
      </trkpt>
      <trkpt lat="43.01009" lon="-0.21706">
        <ele>1366.52</ele>
        <time>2018-10-11T10:20:40Z</time>
      </trkpt>
      <trkpt lat="43.00992" lon="-0.21696">
        <ele>1367.5</ele>
        <time>2018-10-11T10:20:53Z</time>
      </trkpt>
      <trkpt lat="43.00975" lon="-0.21685">
        <ele>1368.52</ele>
        <time>2018-10-11T10:21:05Z</time>
      </trkpt>
      <trkpt lat="43.00956" lon="-0.21689">
        <ele>1366.82</ele>
        <time>2018-10-11T10:21:16Z</time>
      </trkpt>
      <trkpt lat="43.00952" lon="-0.21715">
        <ele>1365.52</ele>
        <time>2018-10-11T10:21:26Z</time>
      </trkpt>
      <trkpt lat="43.00967" lon="-0.21732">
        <ele>1366.52</ele>
        <time>2018-10-11T10:21:36Z</time>
      </trkpt>
      <trkpt lat="43.00984" lon="-0.21744">
        <ele>1368.43</ele>
        <time>2018-10-11T10:21:46Z</time>
      </trkpt>
      <trkpt lat="43.00998" lon="-0.21761">
        <ele>1371.49</ele>
        <time>2018-10-11T10:21:56Z</time>
      </trkpt>
      <trkpt lat="43.01012" lon="-0.21778">
        <ele>1374.49</ele>
        <time>2018-10-11T10:22:05Z</time>
      </trkpt>
      <trkpt lat="43.01028" lon="-0.21791">
        <ele>1374.5</ele>
        <time>2018-10-11T10:22:14Z</time>
      </trkpt>
      <trkpt lat="43.01043" lon="-0.21806">
        <ele>1376.6</ele>
        <time>2018-10-11T10:22:23Z</time>
      </trkpt>
      <trkpt lat="43.0106" lon="-0.2182">
        <ele>1379.21</ele>
        <time>2018-10-11T10:22:33Z</time>
      </trkpt>
      <trkpt lat="43.01078" lon="-0.21827">
        <ele>1379.43</ele>
        <time>2018-10-11T10:22:42Z</time>
      </trkpt>
      <trkpt lat="43.01096" lon="-0.21834">
        <ele>1380.55</ele>
        <time>2018-10-11T10:22:51Z</time>
      </trkpt>
      <trkpt lat="43.01114" lon="-0.21841">
        <ele>1381.52</ele>
        <time>2018-10-11T10:23:00Z</time>
      </trkpt>
      <trkpt lat="43.0113" lon="-0.21853">
        <ele>1383.52</ele>
        <time>2018-10-11T10:23:11Z</time>
      </trkpt>
      <trkpt lat="43.01151" lon="-0.21872">
        <ele>1382.52</ele>
        <time>2018-10-11T11:03:00Z</time>
      </trkpt>
      <trkpt lat="43.01163" lon="-0.21892">
        <ele>1372.82</ele>
        <time>2018-10-11T11:03:07Z</time>
      </trkpt>
      <trkpt lat="43.01147" lon="-0.21877">
        <ele>1377.49</ele>
        <time>2018-10-11T11:05:09Z</time>
      </trkpt>
      <trkpt lat="43.01161" lon="-0.21894">
        <ele>1377.82</ele>
        <time>2018-10-11T11:07:15Z</time>
      </trkpt>
      <trkpt lat="43.01143" lon="-0.21887">
        <ele>1378.1</ele>
        <time>2018-10-11T11:07:54Z</time>
      </trkpt>
      <trkpt lat="43.01125" lon="-0.2188">
        <ele>1378.6</ele>
        <time>2018-10-11T11:08:01Z</time>
      </trkpt>
      <trkpt lat="43.01115" lon="-0.21902">
        <ele>1376.82</ele>
        <time>2018-10-11T11:08:12Z</time>
      </trkpt>
      <trkpt lat="43.01108" lon="-0.21925">
        <ele>1375.53</ele>
        <time>2018-10-11T11:08:18Z</time>
      </trkpt>
      <trkpt lat="43.01097" lon="-0.21954">
        <ele>1374.62</ele>
        <time>2018-10-11T11:08:23Z</time>
      </trkpt>
      <trkpt lat="43.01083" lon="-0.21974">
        <ele>1373.61</ele>
        <time>2018-10-11T11:08:26Z</time>
      </trkpt>
      <trkpt lat="43.01067" lon="-0.21993">
        <ele>1370.94</ele>
        <time>2018-10-11T11:08:29Z</time>
      </trkpt>
      <trkpt lat="43.01051" lon="-0.22011">
        <ele>1368.92</ele>
        <time>2018-10-11T11:08:32Z</time>
      </trkpt>
      <trkpt lat="43.01036" lon="-0.22028">
        <ele>1366.65</ele>
        <time>2018-10-11T11:08:35Z</time>
      </trkpt>
      <trkpt lat="43.01019" lon="-0.22051">
        <ele>1362.95</ele>
        <time>2018-10-11T11:08:39Z</time>
      </trkpt>
      <trkpt lat="43.01005" lon="-0.22078">
        <ele>1359.65</ele>
        <time>2018-10-11T11:08:43Z</time>
      </trkpt>
      <trkpt lat="43.00996" lon="-0.221">
        <ele>1357.64</ele>
        <time>2018-10-11T11:08:46Z</time>
      </trkpt>
      <trkpt lat="43.00985" lon="-0.22128">
        <ele>1354.86</ele>
        <time>2018-10-11T11:08:50Z</time>
      </trkpt>
      <trkpt lat="43.00981" lon="-0.22152">
        <ele>1352.65</ele>
        <time>2018-10-11T11:08:53Z</time>
      </trkpt>
      <trkpt lat="43.0098" lon="-0.22178">
        <ele>1349.94</ele>
        <time>2018-10-11T11:08:56Z</time>
      </trkpt>
      <trkpt lat="43.00978" lon="-0.22208">
        <ele>1346.95</ele>
        <time>2018-10-11T11:08:59Z</time>
      </trkpt>
      <trkpt lat="43.00972" lon="-0.22243">
        <ele>1343.04</ele>
        <time>2018-10-11T11:09:02Z</time>
      </trkpt>
      <trkpt lat="43.00966" lon="-0.22275">
        <ele>1339.68</ele>
        <time>2018-10-11T11:09:05Z</time>
      </trkpt>
      <trkpt lat="43.00959" lon="-0.22301">
        <ele>1337.64</ele>
        <time>2018-10-11T11:09:08Z</time>
      </trkpt>
      <trkpt lat="43.0095" lon="-0.22326">
        <ele>1336.55</ele>
        <time>2018-10-11T11:09:12Z</time>
      </trkpt>
      <trkpt lat="43.00941" lon="-0.2235">
        <ele>1335.61</ele>
        <time>2018-10-11T11:09:16Z</time>
      </trkpt>
      <trkpt lat="43.00934" lon="-0.22375">
        <ele>1332.92</ele>
        <time>2018-10-11T11:09:20Z</time>
      </trkpt>
      <trkpt lat="43.00927" lon="-0.22401">
        <ele>1330.85</ele>
        <time>2018-10-11T11:09:24Z</time>
      </trkpt>
      <trkpt lat="43.00924" lon="-0.22428">
        <ele>1328.62</ele>
        <time>2018-10-11T11:09:29Z</time>
      </trkpt>
      <trkpt lat="43.00921" lon="-0.22452">
        <ele>1325.86</ele>
        <time>2018-10-11T11:09:33Z</time>
      </trkpt>
      <trkpt lat="43.00913" lon="-0.22476">
        <ele>1322.62</ele>
        <time>2018-10-11T11:09:40Z</time>
      </trkpt>
      <trkpt lat="43.00911" lon="-0.22504">
        <ele>1318.55</ele>
        <time>2018-10-11T11:10:28Z</time>
      </trkpt>
      <trkpt lat="43.00905" lon="-0.22528">
        <ele>1316.82</ele>
        <time>2018-10-11T11:10:33Z</time>
      </trkpt>
      <trkpt lat="43.00898" lon="-0.22552">
        <ele>1314.85</ele>
        <time>2018-10-11T11:10:39Z</time>
      </trkpt>
      <trkpt lat="43.00897" lon="-0.22579">
        <ele>1313.61</ele>
        <time>2018-10-11T11:10:47Z</time>
      </trkpt>
      <trkpt lat="43.00894" lon="-0.22605">
        <ele>1307.65</ele>
        <time>2018-10-11T11:10:55Z</time>
      </trkpt>
      <trkpt lat="43.0089" lon="-0.2263">
        <ele>1305.56</ele>
        <time>2018-10-11T11:11:03Z</time>
      </trkpt>
      <trkpt lat="43.00889" lon="-0.22658">
        <ele>1303.86</ele>
        <time>2018-10-11T11:11:12Z</time>
      </trkpt>
      <trkpt lat="43.0089" lon="-0.22686">
        <ele>1298.56</ele>
        <time>2018-10-11T11:11:19Z</time>
      </trkpt>
      <trkpt lat="43.00885" lon="-0.22711">
        <ele>1295.9</ele>
        <time>2018-10-11T11:11:27Z</time>
      </trkpt>
      <trkpt lat="43.00891" lon="-0.22735">
        <ele>1294.82</ele>
        <time>2018-10-11T11:11:55Z</time>
      </trkpt>
      <trkpt lat="43.00892" lon="-0.22762">
        <ele>1290.85</ele>
        <time>2018-10-11T11:12:40Z</time>
      </trkpt>
      <trkpt lat="43.00892" lon="-0.22789">
        <ele>1287.62</ele>
        <time>2018-10-11T11:12:46Z</time>
      </trkpt>
      <trkpt lat="43.00894" lon="-0.22814">
        <ele>1286.61</ele>
        <time>2018-10-11T11:12:51Z</time>
      </trkpt>
      <trkpt lat="43.00898" lon="-0.22842">
        <ele>1283.15</ele>
        <time>2018-10-11T11:12:57Z</time>
      </trkpt>
      <trkpt lat="43.00899" lon="-0.2287">
        <ele>1279.92</ele>
        <time>2018-10-11T11:13:02Z</time>
      </trkpt>
      <trkpt lat="43.00903" lon="-0.22898">
        <ele>1277.62</ele>
        <time>2018-10-11T11:13:07Z</time>
      </trkpt>
      <trkpt lat="43.00906" lon="-0.22923">
        <ele>1274.86</ele>
        <time>2018-10-11T11:13:11Z</time>
      </trkpt>
      <trkpt lat="43.00902" lon="-0.22952">
        <ele>1271.94</ele>
        <time>2018-10-11T11:13:15Z</time>
      </trkpt>
      <trkpt lat="43.00892" lon="-0.22977">
        <ele>1268.95</ele>
        <time>2018-10-11T11:13:18Z</time>
      </trkpt>
      <trkpt lat="43.00883" lon="-0.23005">
        <ele>1265.95</ele>
        <time>2018-10-11T11:13:21Z</time>
      </trkpt>
      <trkpt lat="43.00875" lon="-0.2303">
        <ele>1263.92</ele>
        <time>2018-10-11T11:13:24Z</time>
      </trkpt>
      <trkpt lat="43.00864" lon="-0.23057">
        <ele>1258.26</ele>
        <time>2018-10-11T11:13:28Z</time>
      </trkpt>
      <trkpt lat="43.00854" lon="-0.23078">
        <ele>1254.55</ele>
        <time>2018-10-11T11:13:34Z</time>
      </trkpt>
      <trkpt lat="43.00872" lon="-0.2307">
        <ele>1249.61</ele>
        <time>2018-10-11T11:13:57Z</time>
      </trkpt>
      <trkpt lat="43.00888" lon="-0.23058">
        <ele>1248.55</ele>
        <time>2018-10-11T11:14:01Z</time>
      </trkpt>
      <trkpt lat="43.00906" lon="-0.23044">
        <ele>1246.85</ele>
        <time>2018-10-11T11:14:05Z</time>
      </trkpt>
      <trkpt lat="43.00925" lon="-0.23034">
        <ele>1244.62</ele>
        <time>2018-10-11T11:14:09Z</time>
      </trkpt>
      <trkpt lat="43.00943" lon="-0.23027">
        <ele>1244.54</ele>
        <time>2018-10-11T11:14:13Z</time>
      </trkpt>
      <trkpt lat="43.0096" lon="-0.23012">
        <ele>1242.62</ele>
        <time>2018-10-11T11:14:17Z</time>
      </trkpt>
      <trkpt lat="43.00966" lon="-0.23039">
        <ele>1233.95</ele>
        <time>2018-10-11T11:14:28Z</time>
      </trkpt>
      <trkpt lat="43.00961" lon="-0.23063">
        <ele>1229.93</ele>
        <time>2018-10-11T11:14:32Z</time>
      </trkpt>
      <trkpt lat="43.00953" lon="-0.23086">
        <ele>1226.86</ele>
        <time>2018-10-11T11:14:37Z</time>
      </trkpt>
      <trkpt lat="43.00974" lon="-0.23086">
        <ele>1222.91</ele>
        <time>2018-10-11T11:14:44Z</time>
      </trkpt>
      <trkpt lat="43.00992" lon="-0.23076">
        <ele>1219.65</ele>
        <time>2018-10-11T11:14:48Z</time>
      </trkpt>
      <trkpt lat="43.01003" lon="-0.23054">
        <ele>1218.53</ele>
        <time>2018-10-11T11:14:52Z</time>
      </trkpt>
      <trkpt lat="43.01009" lon="-0.23027">
        <ele>1216.85</ele>
        <time>2018-10-11T11:14:57Z</time>
      </trkpt>
      <trkpt lat="43.01011" lon="-0.23002">
        <ele>1213.55</ele>
        <time>2018-10-11T11:15:03Z</time>
      </trkpt>
      <trkpt lat="43.01016" lon="-0.22978">
        <ele>1209.53</ele>
        <time>2018-10-11T11:15:14Z</time>
      </trkpt>
      <trkpt lat="43.01022" lon="-0.22953">
        <ele>1207.61</ele>
        <time>2018-10-11T11:15:20Z</time>
      </trkpt>
      <trkpt lat="43.01025" lon="-0.22929">
        <ele>1206.52</ele>
        <time>2018-10-11T11:15:30Z</time>
      </trkpt>
      <trkpt lat="43.01028" lon="-0.22902">
        <ele>1200.61</ele>
        <time>2018-10-11T11:15:49Z</time>
      </trkpt>
      <trkpt lat="43.01029" lon="-0.22876">
        <ele>1194.92</ele>
        <time>2018-10-11T11:16:41Z</time>
      </trkpt>
      <trkpt lat="43.01034" lon="-0.22852">
        <ele>1189.86</ele>
        <time>2018-10-11T11:16:47Z</time>
      </trkpt>
      <trkpt lat="43.01045" lon="-0.22831">
        <ele>1185.61</ele>
        <time>2018-10-11T11:16:57Z</time>
      </trkpt>
      <trkpt lat="43.01063" lon="-0.22822">
        <ele>1181.86</ele>
        <time>2018-10-11T11:17:03Z</time>
      </trkpt>
      <trkpt lat="43.01081" lon="-0.22813">
        <ele>1179.62</ele>
        <time>2018-10-11T11:17:08Z</time>
      </trkpt>
      <trkpt lat="43.0109" lon="-0.2279">
        <ele>1177.61</ele>
        <time>2018-10-11T11:17:14Z</time>
      </trkpt>
      <trkpt lat="43.01091" lon="-0.22761">
        <ele>1175.85</ele>
        <time>2018-10-11T11:17:20Z</time>
      </trkpt>
      <trkpt lat="43.011" lon="-0.22739">
        <ele>1172.85</ele>
        <time>2018-10-11T11:17:27Z</time>
      </trkpt>
      <trkpt lat="43.01107" lon="-0.22762">
        <ele>1167.83</ele>
        <time>2018-10-11T11:18:43Z</time>
      </trkpt>
      <trkpt lat="43.01109" lon="-0.22788">
        <ele>1166.82</ele>
        <time>2018-10-11T11:18:49Z</time>
      </trkpt>
      <trkpt lat="43.01105" lon="-0.22815">
        <ele>1166.52</ele>
        <time>2018-10-11T11:18:55Z</time>
      </trkpt>
      <trkpt lat="43.01091" lon="-0.22834">
        <ele>1164.55</ele>
        <time>2018-10-11T11:19:01Z</time>
      </trkpt>
      <trkpt lat="43.01081" lon="-0.22856">
        <ele>1163.43</ele>
        <time>2018-10-11T11:19:10Z</time>
      </trkpt>
      <trkpt lat="43.01066" lon="-0.22872">
        <ele>1164.52</ele>
        <time>2018-10-11T11:19:20Z</time>
      </trkpt>
      <trkpt lat="43.01066" lon="-0.22903">
        <ele>1162.85</ele>
        <time>2018-10-11T11:19:25Z</time>
      </trkpt>
      <trkpt lat="43.01068" lon="-0.22929">
        <ele>1161.62</ele>
        <time>2018-10-11T11:19:28Z</time>
      </trkpt>
      <trkpt lat="43.01071" lon="-0.2296">
        <ele>1160.82</ele>
        <time>2018-10-11T11:19:32Z</time>
      </trkpt>
      <trkpt lat="43.01076" lon="-0.22988">
        <ele>1158.56</ele>
        <time>2018-10-11T11:19:36Z</time>
      </trkpt>
      <trkpt lat="43.01082" lon="-0.23017">
        <ele>1158.52</ele>
        <time>2018-10-11T11:19:41Z</time>
      </trkpt>
      <trkpt lat="43.01093" lon="-0.23038">
        <ele>1156.62</ele>
        <time>2018-10-11T11:19:45Z</time>
      </trkpt>
      <trkpt lat="43.01103" lon="-0.2306">
        <ele>1154.83</ele>
        <time>2018-10-11T11:19:49Z</time>
      </trkpt>
      <trkpt lat="43.01115" lon="-0.23082">
        <ele>1153.61</ele>
        <time>2018-10-11T11:19:53Z</time>
      </trkpt>
      <trkpt lat="43.01126" lon="-0.23107">
        <ele>1152.61</ele>
        <time>2018-10-11T11:19:57Z</time>
      </trkpt>
      <trkpt lat="43.01127" lon="-0.23137">
        <ele>1149.65</ele>
        <time>2018-10-11T11:20:01Z</time>
      </trkpt>
      <trkpt lat="43.01119" lon="-0.23161">
        <ele>1148.62</ele>
        <time>2018-10-11T11:20:04Z</time>
      </trkpt>
      <trkpt lat="43.01107" lon="-0.23186">
        <ele>1146.85</ele>
        <time>2018-10-11T11:20:08Z</time>
      </trkpt>
      <trkpt lat="43.0111" lon="-0.23211">
        <ele>1142.68</ele>
        <time>2018-10-11T11:20:12Z</time>
      </trkpt>
      <trkpt lat="43.01113" lon="-0.23239">
        <ele>1138.74</ele>
        <time>2018-10-11T11:20:16Z</time>
      </trkpt>
      <trkpt lat="43.01124" lon="-0.2326">
        <ele>1135.94</ele>
        <time>2018-10-11T11:20:19Z</time>
      </trkpt>
      <trkpt lat="43.01132" lon="-0.23288">
        <ele>1131.95</ele>
        <time>2018-10-11T11:20:23Z</time>
      </trkpt>
      <trkpt lat="43.0113" lon="-0.23319">
        <ele>1129.85</ele>
        <time>2018-10-11T11:20:27Z</time>
      </trkpt>
      <trkpt lat="43.01111" lon="-0.23327">
        <ele>1126.92</ele>
        <time>2018-10-11T11:20:32Z</time>
      </trkpt>
      <trkpt lat="43.01093" lon="-0.23319">
        <ele>1122.89</ele>
        <time>2018-10-11T11:20:36Z</time>
      </trkpt>
      <trkpt lat="43.01072" lon="-0.2332">
        <ele>1119.65</ele>
        <time>2018-10-11T11:20:40Z</time>
      </trkpt>
      <trkpt lat="43.01087" lon="-0.23341">
        <ele>1112.65</ele>
        <time>2018-10-11T11:20:57Z</time>
      </trkpt>
      <trkpt lat="43.011" lon="-0.23359">
        <ele>1109.92</ele>
        <time>2018-10-11T11:21:01Z</time>
      </trkpt>
      <trkpt lat="43.01113" lon="-0.23381">
        <ele>1107.64</ele>
        <time>2018-10-11T11:21:05Z</time>
      </trkpt>
      <trkpt lat="43.01131" lon="-0.23397">
        <ele>1105.85</ele>
        <time>2018-10-11T11:21:09Z</time>
      </trkpt>
      <trkpt lat="43.01149" lon="-0.23412">
        <ele>1103.83</ele>
        <time>2018-10-11T11:21:13Z</time>
      </trkpt>
      <trkpt lat="43.01134" lon="-0.2343">
        <ele>1100.94</ele>
        <time>2018-10-11T11:21:20Z</time>
      </trkpt>
      <trkpt lat="43.01111" lon="-0.23431">
        <ele>1095.07</ele>
        <time>2018-10-11T11:21:24Z</time>
      </trkpt>
      <trkpt lat="43.01093" lon="-0.2342">
        <ele>1091.62</ele>
        <time>2018-10-11T11:21:29Z</time>
      </trkpt>
      <trkpt lat="43.01073" lon="-0.23408">
        <ele>1087.92</ele>
        <time>2018-10-11T11:21:34Z</time>
      </trkpt>
      <trkpt lat="43.01055" lon="-0.23405">
        <ele>1084.95</ele>
        <time>2018-10-11T11:21:37Z</time>
      </trkpt>
      <trkpt lat="43.01032" lon="-0.23404">
        <ele>1082.62</ele>
        <time>2018-10-11T11:21:41Z</time>
      </trkpt>
      <trkpt lat="43.01013" lon="-0.23414">
        <ele>1080.55</ele>
        <time>2018-10-11T11:21:46Z</time>
      </trkpt>
      <trkpt lat="43.00995" lon="-0.23426">
        <ele>1078.61</ele>
        <time>2018-10-11T11:21:52Z</time>
      </trkpt>
      <trkpt lat="43.0098" lon="-0.23443">
        <ele>1076.82</ele>
        <time>2018-10-11T11:21:59Z</time>
      </trkpt>
      <trkpt lat="43.00971" lon="-0.23466">
        <ele>1074.85</ele>
        <time>2018-10-11T11:22:05Z</time>
      </trkpt>
      <trkpt lat="43.00961" lon="-0.23493">
        <ele>1069.95</ele>
        <time>2018-10-11T11:22:10Z</time>
      </trkpt>
      <trkpt lat="43.00947" lon="-0.23515">
        <ele>1066.92</ele>
        <time>2018-10-11T11:22:15Z</time>
      </trkpt>
      <trkpt lat="43.00931" lon="-0.23531">
        <ele>1066.52</ele>
        <time>2018-10-11T11:22:20Z</time>
      </trkpt>
      <trkpt lat="43.00919" lon="-0.23551">
        <ele>1064.83</ele>
        <time>2018-10-11T11:22:24Z</time>
      </trkpt>
      <trkpt lat="43.00904" lon="-0.2357">
        <ele>1062.85</ele>
        <time>2018-10-11T11:22:28Z</time>
      </trkpt>
      <trkpt lat="43.00893" lon="-0.23591">
        <ele>1061.61</ele>
        <time>2018-10-11T11:22:32Z</time>
      </trkpt>
      <trkpt lat="43.00879" lon="-0.23609">
        <ele>1058.92</ele>
        <time>2018-10-11T11:22:36Z</time>
      </trkpt>
      <trkpt lat="43.00865" lon="-0.23628">
        <ele>1056.85</ele>
        <time>2018-10-11T11:22:40Z</time>
      </trkpt>
      <trkpt lat="43.00849" lon="-0.23648">
        <ele>1052.92</ele>
        <time>2018-10-11T11:22:45Z</time>
      </trkpt>
      <trkpt lat="43.00827" lon="-0.23661">
        <ele>1049.64</ele>
        <time>2018-10-11T11:22:50Z</time>
      </trkpt>
      <trkpt lat="43.00809" lon="-0.23669">
        <ele>1047.83</ele>
        <time>2018-10-11T11:22:55Z</time>
      </trkpt>
      <trkpt lat="43.00824" lon="-0.23686">
        <ele>1041.95</ele>
        <time>2018-10-11T11:23:09Z</time>
      </trkpt>
      <trkpt lat="43.00843" lon="-0.23689">
        <ele>1038.71</ele>
        <time>2018-10-11T11:23:13Z</time>
      </trkpt>
      <trkpt lat="43.00863" lon="-0.23676">
        <ele>1035.64</ele>
        <time>2018-10-11T11:23:18Z</time>
      </trkpt>
      <trkpt lat="43.00881" lon="-0.23663">
        <ele>1032.64</ele>
        <time>2018-10-11T11:23:23Z</time>
      </trkpt>
      <trkpt lat="43.00899" lon="-0.23657">
        <ele>1030.61</ele>
        <time>2018-10-11T11:23:28Z</time>
      </trkpt>
      <trkpt lat="43.00917" lon="-0.23647">
        <ele>1029.61</ele>
        <time>2018-10-11T11:23:33Z</time>
      </trkpt>
      <trkpt lat="43.00936" lon="-0.23646">
        <ele>1027.62</ele>
        <time>2018-10-11T11:23:37Z</time>
      </trkpt>
      <trkpt lat="43.00952" lon="-0.23659">
        <ele>1024.61</ele>
        <time>2018-10-11T11:23:44Z</time>
      </trkpt>
      <trkpt lat="43.00937" lon="-0.23675">
        <ele>1016.04</ele>
        <time>2018-10-11T11:23:55Z</time>
      </trkpt>
      <trkpt lat="43.00919" lon="-0.23686">
        <ele>1012.65</ele>
        <time>2018-10-11T11:24:00Z</time>
      </trkpt>
      <trkpt lat="43.00904" lon="-0.23701">
        <ele>1010.62</ele>
        <time>2018-10-11T11:24:04Z</time>
      </trkpt>
      <trkpt lat="43.00888" lon="-0.23719">
        <ele>1007.94</ele>
        <time>2018-10-11T11:24:08Z</time>
      </trkpt>
      <trkpt lat="43.00879" lon="-0.23743">
        <ele>1005.64</ele>
        <time>2018-10-11T11:24:12Z</time>
      </trkpt>
      <trkpt lat="43.00864" lon="-0.2376">
        <ele>1001.86</ele>
        <time>2018-10-11T11:24:17Z</time>
      </trkpt>
      <trkpt lat="43.0085" lon="-0.23779">
        <ele>998.86</ele>
        <time>2018-10-11T11:24:21Z</time>
      </trkpt>
      <trkpt lat="43.00836" lon="-0.23797">
        <ele>996.64</ele>
        <time>2018-10-11T11:24:25Z</time>
      </trkpt>
      <trkpt lat="43.00819" lon="-0.23809">
        <ele>994.85</ele>
        <time>2018-10-11T11:24:28Z</time>
      </trkpt>
      <trkpt lat="43.008" lon="-0.23823">
        <ele>993.62</ele>
        <time>2018-10-11T11:24:31Z</time>
      </trkpt>
      <trkpt lat="43.00777" lon="-0.2383">
        <ele>992.61</ele>
        <time>2018-10-11T11:24:35Z</time>
      </trkpt>
      <trkpt lat="43.00759" lon="-0.23825">
        <ele>989.94</ele>
        <time>2018-10-11T11:24:38Z</time>
      </trkpt>
      <trkpt lat="43.00739" lon="-0.23824">
        <ele>985.97</ele>
        <time>2018-10-11T11:24:42Z</time>
      </trkpt>
      <trkpt lat="43.00725" lon="-0.23845">
        <ele>982.62</ele>
        <time>2018-10-11T11:24:47Z</time>
      </trkpt>
      <trkpt lat="43.00734" lon="-0.23871">
        <ele>976.95</ele>
        <time>2018-10-11T11:24:54Z</time>
      </trkpt>
      <trkpt lat="43.00749" lon="-0.23888">
        <ele>970.85</ele>
        <time>2018-10-11T11:25:07Z</time>
      </trkpt>
      <trkpt lat="43.00762" lon="-0.23912">
        <ele>964.94</ele>
        <time>2018-10-11T11:25:23Z</time>
      </trkpt>
      <trkpt lat="43.00769" lon="-0.2394">
        <ele>960.03</ele>
        <time>2018-10-11T11:25:28Z</time>
      </trkpt>
      <trkpt lat="43.00787" lon="-0.23956">
        <ele>957.91</ele>
        <time>2018-10-11T11:25:33Z</time>
      </trkpt>
      <trkpt lat="43.00796" lon="-0.23981">
        <ele>952.66</ele>
        <time>2018-10-11T11:25:39Z</time>
      </trkpt>
      <trkpt lat="43.00806" lon="-0.24006">
        <ele>947.85</ele>
        <time>2018-10-11T11:25:46Z</time>
      </trkpt>
      <trkpt lat="43.00825" lon="-0.24017">
        <ele>944.86</ele>
        <time>2018-10-11T11:25:51Z</time>
      </trkpt>
      <trkpt lat="43.00843" lon="-0.24005">
        <ele>942.85</ele>
        <time>2018-10-11T11:25:55Z</time>
      </trkpt>
      <trkpt lat="43.00859" lon="-0.23989">
        <ele>938.61</ele>
        <time>2018-10-11T11:28:10Z</time>
      </trkpt>
      <trkpt lat="43.00873" lon="-0.23974">
        <ele>935.83</ele>
        <time>2018-10-11T11:28:16Z</time>
      </trkpt>
      <trkpt lat="43.00886" lon="-0.23994">
        <ele>930.94</ele>
        <time>2018-10-11T11:28:25Z</time>
      </trkpt>
      <trkpt lat="43.00883" lon="-0.2402">
        <ele>928.86</ele>
        <time>2018-10-11T11:28:28Z</time>
      </trkpt>
      <trkpt lat="43.00891" lon="-0.24047">
        <ele>927.62</ele>
        <time>2018-10-11T11:28:31Z</time>
      </trkpt>
      <trkpt lat="43.00903" lon="-0.24072">
        <ele>925.85</ele>
        <time>2018-10-11T11:28:34Z</time>
      </trkpt>
      <trkpt lat="43.00912" lon="-0.24097">
        <ele>924.83</ele>
        <time>2018-10-11T11:28:37Z</time>
      </trkpt>
      <trkpt lat="43.00928" lon="-0.24111">
        <ele>923.83</ele>
        <time>2018-10-11T11:28:40Z</time>
      </trkpt>
      <trkpt lat="43.00946" lon="-0.24124">
        <ele>921.83</ele>
        <time>2018-10-11T11:28:44Z</time>
      </trkpt>
      <trkpt lat="43.00965" lon="-0.24126">
        <ele>920.61</ele>
        <time>2018-10-11T11:28:48Z</time>
      </trkpt>
      <trkpt lat="43.00978" lon="-0.24144">
        <ele>917.94</ele>
        <time>2018-10-11T11:28:52Z</time>
      </trkpt>
      <trkpt lat="43.00986" lon="-0.24168">
        <ele>916.83</ele>
        <time>2018-10-11T11:28:55Z</time>
      </trkpt>
      <trkpt lat="43.00998" lon="-0.2419">
        <ele>915.56</ele>
        <time>2018-10-11T11:28:58Z</time>
      </trkpt>
      <trkpt lat="43.01013" lon="-0.24207">
        <ele>913.85</ele>
        <time>2018-10-11T11:29:01Z</time>
      </trkpt>
      <trkpt lat="43.01028" lon="-0.24231">
        <ele>912.62</ele>
        <time>2018-10-11T11:29:04Z</time>
      </trkpt>
      <trkpt lat="43.01041" lon="-0.24251">
        <ele>911.55</ele>
        <time>2018-10-11T11:29:07Z</time>
      </trkpt>
      <trkpt lat="43.01051" lon="-0.24273">
        <ele>909.85</ele>
        <time>2018-10-11T11:29:10Z</time>
      </trkpt>
      <trkpt lat="43.01059" lon="-0.24301">
        <ele>907.64</ele>
        <time>2018-10-11T11:29:14Z</time>
      </trkpt>
      <trkpt lat="43.01077" lon="-0.2431">
        <ele>902.65</ele>
        <time>2018-10-11T11:29:22Z</time>
      </trkpt>
      <trkpt lat="43.01096" lon="-0.24324">
        <ele>898.86</ele>
        <time>2018-10-11T11:29:29Z</time>
      </trkpt>
      <trkpt lat="43.01112" lon="-0.24342">
        <ele>893.26</ele>
        <time>2018-10-11T11:29:33Z</time>
      </trkpt>
      <trkpt lat="43.01124" lon="-0.24363">
        <ele>890.14</ele>
        <time>2018-10-11T11:29:37Z</time>
      </trkpt>
      <trkpt lat="43.0114" lon="-0.24377">
        <ele>887.92</ele>
        <time>2018-10-11T11:29:41Z</time>
      </trkpt>
      <trkpt lat="43.01157" lon="-0.24392">
        <ele>885.64</ele>
        <time>2018-10-11T11:29:45Z</time>
      </trkpt>
      <trkpt lat="43.01173" lon="-0.24407">
        <ele>884.55</ele>
        <time>2018-10-11T11:29:49Z</time>
      </trkpt>
      <trkpt lat="43.01189" lon="-0.24424">
        <ele>882.85</ele>
        <time>2018-10-11T11:29:53Z</time>
      </trkpt>
      <trkpt lat="43.01205" lon="-0.24443">
        <ele>879.94</ele>
        <time>2018-10-11T11:29:58Z</time>
      </trkpt>
      <trkpt lat="43.01212" lon="-0.24471">
        <ele>874.28</ele>
        <time>2018-10-11T11:30:02Z</time>
      </trkpt>
      <trkpt lat="43.01215" lon="-0.24502">
        <ele>868.98</ele>
        <time>2018-10-11T11:30:06Z</time>
      </trkpt>
      <trkpt lat="43.01217" lon="-0.24534">
        <ele>864.95</ele>
        <time>2018-10-11T11:30:10Z</time>
      </trkpt>
      <trkpt lat="43.01217" lon="-0.24564">
        <ele>860.95</ele>
        <time>2018-10-11T11:30:14Z</time>
      </trkpt>
      <trkpt lat="43.01221" lon="-0.24588">
        <ele>857.89</ele>
        <time>2018-10-11T11:30:17Z</time>
      </trkpt>
      <trkpt lat="43.01232" lon="-0.24616">
        <ele>854.16</ele>
        <time>2018-10-11T11:30:21Z</time>
      </trkpt>
      <trkpt lat="43.01246" lon="-0.24642">
        <ele>849.33</ele>
        <time>2018-10-11T11:30:25Z</time>
      </trkpt>
      <trkpt lat="43.01253" lon="-0.24669">
        <ele>842.35</ele>
        <time>2018-10-11T11:30:29Z</time>
      </trkpt>
      <trkpt lat="43.01255" lon="-0.24698">
        <ele>831.95</ele>
        <time>2018-10-11T11:30:38Z</time>
      </trkpt>
      <trkpt lat="43.01255" lon="-0.24723">
        <ele>822.85</ele>
        <time>2018-10-11T11:31:22Z</time>
      </trkpt>
      <trkpt lat="43.01251" lon="-0.24752">
        <ele>818.92</ele>
        <time>2018-10-11T11:31:27Z</time>
      </trkpt>
      <trkpt lat="43.01255" lon="-0.24782">
        <ele>815.86</ele>
        <time>2018-10-11T11:31:31Z</time>
      </trkpt>
      <trkpt lat="43.01256" lon="-0.2481">
        <ele>812.94</ele>
        <time>2018-10-11T11:31:35Z</time>
      </trkpt>
      <trkpt lat="43.01258" lon="-0.24838">
        <ele>810.64</ele>
        <time>2018-10-11T11:31:39Z</time>
      </trkpt>
      <trkpt lat="43.01245" lon="-0.24856">
        <ele>807.86</ele>
        <time>2018-10-11T11:31:43Z</time>
      </trkpt>
      <trkpt lat="43.01229" lon="-0.24867">
        <ele>805.64</ele>
        <time>2018-10-11T11:31:47Z</time>
      </trkpt>
      <trkpt lat="43.01206" lon="-0.24873">
        <ele>803.62</ele>
        <time>2018-10-11T11:31:51Z</time>
      </trkpt>
      <trkpt lat="43.01189" lon="-0.24879">
        <ele>802.61</ele>
        <time>2018-10-11T11:31:54Z</time>
      </trkpt>
      <trkpt lat="43.01171" lon="-0.24884">
        <ele>801.55</ele>
        <time>2018-10-11T11:31:58Z</time>
      </trkpt>
      <trkpt lat="43.01185" lon="-0.24907">
        <ele>798.64</ele>
        <time>2018-10-11T11:32:04Z</time>
      </trkpt>
      <trkpt lat="43.01199" lon="-0.24929">
        <ele>795.86</ele>
        <time>2018-10-11T11:32:08Z</time>
      </trkpt>
      <trkpt lat="43.0121" lon="-0.24956">
        <ele>792.94</ele>
        <time>2018-10-11T11:32:12Z</time>
      </trkpt>
      <trkpt lat="43.01225" lon="-0.2498">
        <ele>788.87</ele>
        <time>2018-10-11T11:32:16Z</time>
      </trkpt>
      <trkpt lat="43.01238" lon="-0.25005">
        <ele>785.06</ele>
        <time>2018-10-11T11:32:20Z</time>
      </trkpt>
      <trkpt lat="43.01246" lon="-0.25031">
        <ele>782.52</ele>
        <time>2018-10-11T11:32:24Z</time>
      </trkpt>
      <trkpt lat="43.01264" lon="-0.25048">
        <ele>780.49</ele>
        <time>2018-10-11T11:32:28Z</time>
      </trkpt>
      <trkpt lat="43.01284" lon="-0.25064">
        <ele>778.49</ele>
        <time>2018-10-11T11:32:32Z</time>
      </trkpt>
      <trkpt lat="43.01303" lon="-0.25074">
        <ele>775.81</ele>
        <time>2018-10-11T11:32:35Z</time>
      </trkpt>
      <trkpt lat="43.01322" lon="-0.25089">
        <ele>773.52</ele>
        <time>2018-10-11T11:32:38Z</time>
      </trkpt>
      <trkpt lat="43.01342" lon="-0.251">
        <ele>770.11</ele>
        <time>2018-10-11T11:32:41Z</time>
      </trkpt>
      <trkpt lat="43.01365" lon="-0.25106">
        <ele>766.59</ele>
        <time>2018-10-11T11:32:45Z</time>
      </trkpt>
      <trkpt lat="43.01386" lon="-0.25108">
        <ele>765.7</ele>
        <time>2018-10-11T11:32:48Z</time>
      </trkpt>
      <trkpt lat="43.01409" lon="-0.25119">
        <ele>763.79</ele>
        <time>2018-10-11T11:32:51Z</time>
      </trkpt>
      <trkpt lat="43.01427" lon="-0.25137">
        <ele>760.82</ele>
        <time>2018-10-11T11:32:54Z</time>
      </trkpt>
      <trkpt lat="43.01444" lon="-0.25156">
        <ele>758.73</ele>
        <time>2018-10-11T11:32:57Z</time>
      </trkpt>
      <trkpt lat="43.01461" lon="-0.25172">
        <ele>757.43</ele>
        <time>2018-10-11T11:33:00Z</time>
      </trkpt>
      <trkpt lat="43.01481" lon="-0.25182">
        <ele>755.72</ele>
        <time>2018-10-11T11:33:03Z</time>
      </trkpt>
      <trkpt lat="43.01504" lon="-0.2519">
        <ele>751.12</ele>
        <time>2018-10-11T11:33:07Z</time>
      </trkpt>
      <trkpt lat="43.01522" lon="-0.2521">
        <ele>746.86</ele>
        <time>2018-10-11T11:33:10Z</time>
      </trkpt>
      <trkpt lat="43.01541" lon="-0.25236">
        <ele>742.91</ele>
        <time>2018-10-11T11:33:13Z</time>
      </trkpt>
      <trkpt lat="43.01564" lon="-0.25254">
        <ele>739.89</ele>
        <time>2018-10-11T11:33:16Z</time>
      </trkpt>
      <trkpt lat="43.01583" lon="-0.2526">
        <ele>737.13</ele>
        <time>2018-10-11T11:33:18Z</time>
      </trkpt>
      <trkpt lat="43.01607" lon="-0.2527">
        <ele>732.92</ele>
        <time>2018-10-11T11:33:21Z</time>
      </trkpt>
      <trkpt lat="43.01626" lon="-0.25285">
        <ele>727.52</ele>
        <time>2018-10-11T11:33:24Z</time>
      </trkpt>
      <trkpt lat="43.01641" lon="-0.25303">
        <ele>724.18</ele>
        <time>2018-10-11T11:33:26Z</time>
      </trkpt>
      <trkpt lat="43.01654" lon="-0.25324">
        <ele>720.25</ele>
        <time>2018-10-11T11:33:28Z</time>
      </trkpt>
      <trkpt lat="43.01666" lon="-0.25349">
        <ele>715.92</ele>
        <time>2018-10-11T11:33:31Z</time>
      </trkpt>
      <trkpt lat="43.01669" lon="-0.2538">
        <ele>711.15</ele>
        <time>2018-10-11T11:33:34Z</time>
      </trkpt>
      <trkpt lat="43.01677" lon="-0.25411">
        <ele>706.92</ele>
        <time>2018-10-11T11:33:37Z</time>
      </trkpt>
      <trkpt lat="43.01687" lon="-0.25442">
        <ele>702.15</ele>
        <time>2018-10-11T11:33:40Z</time>
      </trkpt>
      <trkpt lat="43.01702" lon="-0.2547">
        <ele>697.86</ele>
        <time>2018-10-11T11:33:43Z</time>
      </trkpt>
      <trkpt lat="43.01715" lon="-0.25498">
        <ele>693.21</ele>
        <time>2018-10-11T11:33:46Z</time>
      </trkpt>
      <trkpt lat="43.01728" lon="-0.25528">
        <ele>688.92</ele>
        <time>2018-10-11T11:33:49Z</time>
      </trkpt>
      <trkpt lat="43.01735" lon="-0.25556">
        <ele>685.76</ele>
        <time>2018-10-11T11:33:52Z</time>
      </trkpt>
      <trkpt lat="43.01735" lon="-0.25583">
        <ele>680.24</ele>
        <time>2018-10-11T11:33:55Z</time>
      </trkpt>
      <trkpt lat="43.01724" lon="-0.25608">
        <ele>675.83</ele>
        <time>2018-10-11T11:33:59Z</time>
      </trkpt>
      <trkpt lat="43.01703" lon="-0.25625">
        <ele>670.24</ele>
        <time>2018-10-11T11:34:02Z</time>
      </trkpt>
      <trkpt lat="43.01683" lon="-0.25642">
        <ele>666.83</ele>
        <time>2018-10-11T11:34:05Z</time>
      </trkpt>
      <trkpt lat="43.01664" lon="-0.2566">
        <ele>663.12</ele>
        <time>2018-10-11T11:34:08Z</time>
      </trkpt>
      <trkpt lat="43.01643" lon="-0.25679">
        <ele>658.92</ele>
        <time>2018-10-11T11:34:11Z</time>
      </trkpt>
      <trkpt lat="43.01623" lon="-0.25686">
        <ele>656.8</ele>
        <time>2018-10-11T11:34:14Z</time>
      </trkpt>
      <trkpt lat="43.01604" lon="-0.25689">
        <ele>648.39</ele>
        <time>2018-10-11T11:34:54Z</time>
      </trkpt>
      <trkpt lat="43.01585" lon="-0.25698">
        <ele>644.46</ele>
        <time>2018-10-11T11:34:59Z</time>
      </trkpt>
      <trkpt lat="43.01567" lon="-0.25707">
        <ele>643.49</ele>
        <time>2018-10-11T11:35:02Z</time>
      </trkpt>
      <trkpt lat="43.0155" lon="-0.25717">
        <ele>639.84</ele>
        <time>2018-10-11T11:35:05Z</time>
      </trkpt>
      <trkpt lat="43.01531" lon="-0.25727">
        <ele>637.8</ele>
        <time>2018-10-11T11:35:08Z</time>
      </trkpt>
      <trkpt lat="43.01514" lon="-0.25741">
        <ele>636.49</ele>
        <time>2018-10-11T11:35:11Z</time>
      </trkpt>
      <trkpt lat="43.01495" lon="-0.25738">
        <ele>632.14</ele>
        <time>2018-10-11T11:35:14Z</time>
      </trkpt>
      <trkpt lat="43.01478" lon="-0.25751">
        <ele>629.74</ele>
        <time>2018-10-11T11:35:17Z</time>
      </trkpt>
      <trkpt lat="43.01459" lon="-0.2577">
        <ele>627.79</ele>
        <time>2018-10-11T11:35:20Z</time>
      </trkpt>
      <trkpt lat="43.01437" lon="-0.25781">
        <ele>624.12</ele>
        <time>2018-10-11T11:35:23Z</time>
      </trkpt>
      <trkpt lat="43.01417" lon="-0.25783">
        <ele>621.74</ele>
        <time>2018-10-11T11:35:26Z</time>
      </trkpt>
      <trkpt lat="43.01397" lon="-0.25793">
        <ele>619.73</ele>
        <time>2018-10-11T11:35:29Z</time>
      </trkpt>
      <trkpt lat="43.01379" lon="-0.25808">
        <ele>617.51</ele>
        <time>2018-10-11T11:35:33Z</time>
      </trkpt>
      <trkpt lat="43.0136" lon="-0.2583">
        <ele>615.72</ele>
        <time>2018-10-11T11:35:36Z</time>
      </trkpt>
      <trkpt lat="43.01349" lon="-0.25852">
        <ele>611.85</ele>
        <time>2018-10-11T11:35:39Z</time>
      </trkpt>
      <trkpt lat="43.01328" lon="-0.25864">
        <ele>605.76</ele>
        <time>2018-10-11T11:35:44Z</time>
      </trkpt>
      <trkpt lat="43.01312" lon="-0.2589">
        <ele>602.52</ele>
        <time>2018-10-11T11:35:48Z</time>
      </trkpt>
      <trkpt lat="43.01298" lon="-0.25916">
        <ele>598.2</ele>
        <time>2018-10-11T11:35:51Z</time>
      </trkpt>
      <trkpt lat="43.01285" lon="-0.25941">
        <ele>594.62</ele>
        <time>2018-10-11T11:35:54Z</time>
      </trkpt>
      <trkpt lat="43.01267" lon="-0.25969">
        <ele>591.82</ele>
        <time>2018-10-11T11:35:57Z</time>
      </trkpt>
      <trkpt lat="43.01251" lon="-0.25985">
        <ele>589.12</ele>
        <time>2018-10-11T11:35:59Z</time>
      </trkpt>
      <trkpt lat="43.01237" lon="-0.26002">
        <ele>585.94</ele>
        <time>2018-10-11T11:36:01Z</time>
      </trkpt>
      <trkpt lat="43.01223" lon="-0.26018">
        <ele>582.22</ele>
        <time>2018-10-11T11:36:03Z</time>
      </trkpt>
      <trkpt lat="43.01208" lon="-0.26043">
        <ele>576.95</ele>
        <time>2018-10-11T11:36:06Z</time>
      </trkpt>
      <trkpt lat="43.01198" lon="-0.26064">
        <ele>573.83</ele>
        <time>2018-10-11T11:36:09Z</time>
      </trkpt>
      <trkpt lat="43.01202" lon="-0.2609">
        <ele>567.83</ele>
        <time>2018-10-11T11:36:14Z</time>
      </trkpt>
      <trkpt lat="43.01218" lon="-0.26102">
        <ele>562.91</ele>
        <time>2018-10-11T11:36:18Z</time>
      </trkpt>
      <trkpt lat="43.01207" lon="-0.26124">
        <ele>557.82</ele>
        <time>2018-10-11T11:36:23Z</time>
      </trkpt>
      <trkpt lat="43.01194" lon="-0.26142">
        <ele>555.42</ele>
        <time>2018-10-11T11:36:29Z</time>
      </trkpt>
      <trkpt lat="43.0118" lon="-0.26159">
        <ele>552.49</ele>
        <time>2018-10-11T11:36:35Z</time>
      </trkpt>
      <trkpt lat="43.01165" lon="-0.26177">
        <ele>549.7</ele>
        <time>2018-10-11T11:36:41Z</time>
      </trkpt>
      <trkpt lat="43.01152" lon="-0.26197">
        <ele>548.48</ele>
        <time>2018-10-11T11:36:47Z</time>
      </trkpt>
      <trkpt lat="43.01139" lon="-0.26217">
        <ele>548.39</ele>
        <time>2018-10-11T11:36:53Z</time>
      </trkpt>
      <trkpt lat="43.01129" lon="-0.26238">
        <ele>548.39</ele>
        <time>2018-10-11T11:36:59Z</time>
      </trkpt>
      <trkpt lat="43.01119" lon="-0.2626">
        <ele>547.4</ele>
        <time>2018-10-11T11:37:05Z</time>
      </trkpt>
      <trkpt lat="43.0111" lon="-0.26285">
        <ele>548.39</ele>
        <time>2018-10-11T11:37:12Z</time>
      </trkpt>
      <trkpt lat="43.011" lon="-0.26309">
        <ele>548.39</ele>
        <time>2018-10-11T11:37:18Z</time>
      </trkpt>
      <trkpt lat="43.01091" lon="-0.26335">
        <ele>549.37</ele>
        <time>2018-10-11T11:37:24Z</time>
      </trkpt>
      <trkpt lat="43.01083" lon="-0.26361">
        <ele>550.37</ele>
        <time>2018-10-11T11:37:30Z</time>
      </trkpt>
      <trkpt lat="43.01073" lon="-0.26386">
        <ele>553.09</ele>
        <time>2018-10-11T11:37:36Z</time>
      </trkpt>
      <trkpt lat="43.01061" lon="-0.26409">
        <ele>552.48</ele>
        <time>2018-10-11T11:37:42Z</time>
      </trkpt>
      <trkpt lat="43.01044" lon="-0.26428">
        <ele>553.39</ele>
        <time>2018-10-11T11:37:48Z</time>
      </trkpt>
      <trkpt lat="43.01028" lon="-0.26439">
        <ele>553.39</ele>
        <time>2018-10-11T11:37:54Z</time>
      </trkpt>
      <trkpt lat="43.01019" lon="-0.26417">
        <ele>555.39</ele>
        <time>2018-10-11T11:38:06Z</time>
      </trkpt>
    </trkseg>
  </trk>
</gpx>